<?xml version="1.0" encoding="UTF-8" standalone="no" ?>
<gpx xmlns="http://www.topografix.com/GPX/1/1" xmlns:xsi="http://www.w3.org/2001/XMLSchema-instance" xsi:schemaLocation="http://www.topografix.com/GPX/1/1 http://www.topografix.com/GPX/1/1/gpx.xsd" version="1.1" creator="VisuGPX - https://www.visugpx.com">
  <metadata>
    <name>En forêt de rambouillet 19 avril 2012</name>
    <desc><![CDATA[En forêt de rambouillet 19 avril 2012]]></desc>
  </metadata>
  <trk>
    <name><![CDATA[19-AVR-12 FORET RAMBOUILLET]]></name>
    <trkseg>
      <trkpt lat="48.69556" lon="1.72731">
        <ele>135.68</ele>
        <time>2012-04-19T07:58:06Z</time>
      </trkpt>
      <trkpt lat="48.69556" lon="1.72725">
        <ele>149.62</ele>
        <time>2012-04-19T07:58:26Z</time>
      </trkpt>
      <trkpt lat="48.69554" lon="1.72722">
        <ele>152.99</ele>
        <time>2012-04-19T07:58:50Z</time>
      </trkpt>
      <trkpt lat="48.69553" lon="1.72723">
        <ele>153.47</ele>
        <time>2012-04-19T07:59:08Z</time>
      </trkpt>
      <trkpt lat="48.69557" lon="1.72723">
        <ele>153.95</ele>
        <time>2012-04-19T07:59:26Z</time>
      </trkpt>
      <trkpt lat="48.6956" lon="1.72719">
        <ele>156.35</ele>
        <time>2012-04-19T07:59:41Z</time>
      </trkpt>
      <trkpt lat="48.69556" lon="1.72713">
        <ele>156.35</ele>
        <time>2012-04-19T07:59:47Z</time>
      </trkpt>
      <trkpt lat="48.69551" lon="1.72706">
        <ele>156.35</ele>
        <time>2012-04-19T07:59:54Z</time>
      </trkpt>
      <trkpt lat="48.69535" lon="1.72693">
        <ele>157.79</ele>
        <time>2012-04-19T08:00:07Z</time>
      </trkpt>
      <trkpt lat="48.69533" lon="1.72705">
        <ele>155.87</ele>
        <time>2012-04-19T08:00:21Z</time>
      </trkpt>
      <trkpt lat="48.69533" lon="1.72703">
        <ele>155.87</ele>
        <time>2012-04-19T08:00:22Z</time>
      </trkpt>
      <trkpt lat="48.69524" lon="1.72686">
        <ele>157.31</ele>
        <time>2012-04-19T08:00:37Z</time>
      </trkpt>
      <trkpt lat="48.69522" lon="1.72684">
        <ele>157.31</ele>
        <time>2012-04-19T08:01:00Z</time>
      </trkpt>
      <trkpt lat="48.69514" lon="1.72676">
        <ele>158.75</ele>
        <time>2012-04-19T08:01:07Z</time>
      </trkpt>
      <trkpt lat="48.69501" lon="1.7266">
        <ele>159.24</ele>
        <time>2012-04-19T08:01:22Z</time>
      </trkpt>
      <trkpt lat="48.69487" lon="1.72639">
        <ele>160.2</ele>
        <time>2012-04-19T08:01:39Z</time>
      </trkpt>
      <trkpt lat="48.69485" lon="1.72635">
        <ele>159.72</ele>
        <time>2012-04-19T08:01:42Z</time>
      </trkpt>
      <trkpt lat="48.69472" lon="1.72612">
        <ele>157.31</ele>
        <time>2012-04-19T08:01:57Z</time>
      </trkpt>
      <trkpt lat="48.6946" lon="1.72585">
        <ele>157.79</ele>
        <time>2012-04-19T08:02:12Z</time>
      </trkpt>
      <trkpt lat="48.69452" lon="1.72568">
        <ele>155.87</ele>
        <time>2012-04-19T08:02:25Z</time>
      </trkpt>
      <trkpt lat="48.69439" lon="1.72541">
        <ele>154.91</ele>
        <time>2012-04-19T08:02:41Z</time>
      </trkpt>
      <trkpt lat="48.69427" lon="1.72514">
        <ele>152.99</ele>
        <time>2012-04-19T08:02:57Z</time>
      </trkpt>
      <trkpt lat="48.69417" lon="1.72496">
        <ele>152.99</ele>
        <time>2012-04-19T08:03:09Z</time>
      </trkpt>
      <trkpt lat="48.69409" lon="1.72479">
        <ele>153.95</ele>
        <time>2012-04-19T08:03:21Z</time>
      </trkpt>
      <trkpt lat="48.69397" lon="1.72459">
        <ele>151.54</ele>
        <time>2012-04-19T08:03:35Z</time>
      </trkpt>
      <trkpt lat="48.69385" lon="1.72436">
        <ele>150.58</ele>
        <time>2012-04-19T08:03:49Z</time>
      </trkpt>
      <trkpt lat="48.69383" lon="1.72431">
        <ele>150.1</ele>
        <time>2012-04-19T08:03:52Z</time>
      </trkpt>
      <trkpt lat="48.69371" lon="1.72413">
        <ele>150.58</ele>
        <time>2012-04-19T08:04:06Z</time>
      </trkpt>
      <trkpt lat="48.6936" lon="1.72393">
        <ele>151.54</ele>
        <time>2012-04-19T08:04:20Z</time>
      </trkpt>
      <trkpt lat="48.69359" lon="1.72392">
        <ele>151.54</ele>
        <time>2012-04-19T08:04:24Z</time>
      </trkpt>
      <trkpt lat="48.69347" lon="1.72367">
        <ele>152.03</ele>
        <time>2012-04-19T08:04:40Z</time>
      </trkpt>
      <trkpt lat="48.69344" lon="1.72361">
        <ele>152.03</ele>
        <time>2012-04-19T08:04:44Z</time>
      </trkpt>
      <trkpt lat="48.69341" lon="1.72355">
        <ele>151.54</ele>
        <time>2012-04-19T08:04:48Z</time>
      </trkpt>
      <trkpt lat="48.69328" lon="1.72325">
        <ele>153.95</ele>
        <time>2012-04-19T08:05:05Z</time>
      </trkpt>
      <trkpt lat="48.69317" lon="1.72299">
        <ele>151.54</ele>
        <time>2012-04-19T08:05:21Z</time>
      </trkpt>
      <trkpt lat="48.69306" lon="1.72275">
        <ele>152.03</ele>
        <time>2012-04-19T08:05:35Z</time>
      </trkpt>
      <trkpt lat="48.69295" lon="1.72249">
        <ele>152.99</ele>
        <time>2012-04-19T08:05:51Z</time>
      </trkpt>
      <trkpt lat="48.69285" lon="1.72228">
        <ele>154.91</ele>
        <time>2012-04-19T08:06:03Z</time>
      </trkpt>
      <trkpt lat="48.69284" lon="1.72226">
        <ele>154.43</ele>
        <time>2012-04-19T08:06:04Z</time>
      </trkpt>
      <trkpt lat="48.69279" lon="1.72221">
        <ele>154.43</ele>
        <time>2012-04-19T08:06:08Z</time>
      </trkpt>
      <trkpt lat="48.69269" lon="1.72206">
        <ele>154.91</ele>
        <time>2012-04-19T08:06:19Z</time>
      </trkpt>
      <trkpt lat="48.69257" lon="1.72191">
        <ele>153.47</ele>
        <time>2012-04-19T08:06:32Z</time>
      </trkpt>
      <trkpt lat="48.69246" lon="1.72181">
        <ele>154.43</ele>
        <time>2012-04-19T08:06:43Z</time>
      </trkpt>
      <trkpt lat="48.6923" lon="1.72155">
        <ele>156.35</ele>
        <time>2012-04-19T08:06:57Z</time>
      </trkpt>
      <trkpt lat="48.6921" lon="1.72132">
        <ele>158.27</ele>
        <time>2012-04-19T08:07:14Z</time>
      </trkpt>
      <trkpt lat="48.69195" lon="1.72111">
        <ele>158.75</ele>
        <time>2012-04-19T08:07:29Z</time>
      </trkpt>
      <trkpt lat="48.69193" lon="1.72107">
        <ele>159.24</ele>
        <time>2012-04-19T08:07:31Z</time>
      </trkpt>
      <trkpt lat="48.69184" lon="1.72094">
        <ele>159.72</ele>
        <time>2012-04-19T08:07:39Z</time>
      </trkpt>
      <trkpt lat="48.69171" lon="1.72079">
        <ele>157.79</ele>
        <time>2012-04-19T08:07:53Z</time>
      </trkpt>
      <trkpt lat="48.69169" lon="1.72076">
        <ele>157.79</ele>
        <time>2012-04-19T08:08:04Z</time>
      </trkpt>
      <trkpt lat="48.69167" lon="1.72073">
        <ele>157.79</ele>
        <time>2012-04-19T08:08:06Z</time>
      </trkpt>
      <trkpt lat="48.69158" lon="1.7206">
        <ele>159.72</ele>
        <time>2012-04-19T08:08:18Z</time>
      </trkpt>
      <trkpt lat="48.69158" lon="1.7206">
        <ele>159.72</ele>
        <time>2012-04-19T08:08:38Z</time>
      </trkpt>
      <trkpt lat="48.69158" lon="1.7206">
        <ele>159.72</ele>
        <time>2012-04-19T08:08:54Z</time>
      </trkpt>
      <trkpt lat="48.6916" lon="1.72061">
        <ele>160.2</ele>
        <time>2012-04-19T08:09:11Z</time>
      </trkpt>
      <trkpt lat="48.69156" lon="1.72059">
        <ele>160.2</ele>
        <time>2012-04-19T08:09:42Z</time>
      </trkpt>
      <trkpt lat="48.69154" lon="1.72057">
        <ele>159.24</ele>
        <time>2012-04-19T08:09:58Z</time>
      </trkpt>
      <trkpt lat="48.6915" lon="1.72052">
        <ele>158.75</ele>
        <time>2012-04-19T08:10:21Z</time>
      </trkpt>
      <trkpt lat="48.6915" lon="1.72052">
        <ele>158.75</ele>
        <time>2012-04-19T08:10:34Z</time>
      </trkpt>
      <trkpt lat="48.69141" lon="1.7203">
        <ele>154.91</ele>
        <time>2012-04-19T08:10:48Z</time>
      </trkpt>
      <trkpt lat="48.69134" lon="1.72013">
        <ele>154.43</ele>
        <time>2012-04-19T08:10:56Z</time>
      </trkpt>
      <trkpt lat="48.69125" lon="1.71991">
        <ele>157.31</ele>
        <time>2012-04-19T08:11:10Z</time>
      </trkpt>
      <trkpt lat="48.69123" lon="1.71985">
        <ele>158.75</ele>
        <time>2012-04-19T08:11:25Z</time>
      </trkpt>
      <trkpt lat="48.69123" lon="1.7198">
        <ele>159.72</ele>
        <time>2012-04-19T08:11:27Z</time>
      </trkpt>
      <trkpt lat="48.69115" lon="1.71942">
        <ele>163.56</ele>
        <time>2012-04-19T08:11:43Z</time>
      </trkpt>
      <trkpt lat="48.69105" lon="1.71914">
        <ele>165.96</ele>
        <time>2012-04-19T08:11:56Z</time>
      </trkpt>
      <trkpt lat="48.69099" lon="1.71899">
        <ele>164.52</ele>
        <time>2012-04-19T08:12:10Z</time>
      </trkpt>
      <trkpt lat="48.69088" lon="1.71869">
        <ele>164.04</ele>
        <time>2012-04-19T08:12:26Z</time>
      </trkpt>
      <trkpt lat="48.69077" lon="1.71841">
        <ele>158.75</ele>
        <time>2012-04-19T08:12:42Z</time>
      </trkpt>
      <trkpt lat="48.69074" lon="1.7182">
        <ele>157.31</ele>
        <time>2012-04-19T08:12:52Z</time>
      </trkpt>
      <trkpt lat="48.6907" lon="1.71802">
        <ele>156.83</ele>
        <time>2012-04-19T08:13:07Z</time>
      </trkpt>
      <trkpt lat="48.69067" lon="1.71801">
        <ele>156.83</ele>
        <time>2012-04-19T08:13:10Z</time>
      </trkpt>
      <trkpt lat="48.69061" lon="1.71794">
        <ele>155.39</ele>
        <time>2012-04-19T08:13:23Z</time>
      </trkpt>
      <trkpt lat="48.69059" lon="1.71783">
        <ele>154.43</ele>
        <time>2012-04-19T08:13:45Z</time>
      </trkpt>
      <trkpt lat="48.6905" lon="1.71753">
        <ele>156.83</ele>
        <time>2012-04-19T08:14:00Z</time>
      </trkpt>
      <trkpt lat="48.6904" lon="1.71726">
        <ele>157.79</ele>
        <time>2012-04-19T08:14:15Z</time>
      </trkpt>
      <trkpt lat="48.6904" lon="1.71722">
        <ele>158.75</ele>
        <time>2012-04-19T08:14:17Z</time>
      </trkpt>
      <trkpt lat="48.69028" lon="1.71694">
        <ele>155.87</ele>
        <time>2012-04-19T08:14:32Z</time>
      </trkpt>
      <trkpt lat="48.69016" lon="1.7167">
        <ele>158.75</ele>
        <time>2012-04-19T08:14:46Z</time>
      </trkpt>
      <trkpt lat="48.69012" lon="1.71661">
        <ele>158.75</ele>
        <time>2012-04-19T08:15:00Z</time>
      </trkpt>
      <trkpt lat="48.69004" lon="1.71645">
        <ele>156.83</ele>
        <time>2012-04-19T08:15:12Z</time>
      </trkpt>
      <trkpt lat="48.68996" lon="1.71628">
        <ele>154.91</ele>
        <time>2012-04-19T08:15:27Z</time>
      </trkpt>
      <trkpt lat="48.68987" lon="1.71615">
        <ele>153.95</ele>
        <time>2012-04-19T08:15:44Z</time>
      </trkpt>
      <trkpt lat="48.68977" lon="1.71596">
        <ele>155.87</ele>
        <time>2012-04-19T08:15:58Z</time>
      </trkpt>
      <trkpt lat="48.68963" lon="1.7157">
        <ele>156.83</ele>
        <time>2012-04-19T08:16:16Z</time>
      </trkpt>
      <trkpt lat="48.68959" lon="1.71566">
        <ele>157.31</ele>
        <time>2012-04-19T08:16:20Z</time>
      </trkpt>
      <trkpt lat="48.68946" lon="1.71548">
        <ele>157.31</ele>
        <time>2012-04-19T08:16:35Z</time>
      </trkpt>
      <trkpt lat="48.68937" lon="1.71534">
        <ele>157.31</ele>
        <time>2012-04-19T08:16:45Z</time>
      </trkpt>
      <trkpt lat="48.6893" lon="1.71519">
        <ele>157.31</ele>
        <time>2012-04-19T08:16:59Z</time>
      </trkpt>
      <trkpt lat="48.68924" lon="1.7151">
        <ele>156.35</ele>
        <time>2012-04-19T08:17:05Z</time>
      </trkpt>
      <trkpt lat="48.68911" lon="1.71483">
        <ele>159.24</ele>
        <time>2012-04-19T08:17:20Z</time>
      </trkpt>
      <trkpt lat="48.689" lon="1.71466">
        <ele>161.16</ele>
        <time>2012-04-19T08:17:32Z</time>
      </trkpt>
      <trkpt lat="48.68894" lon="1.71455">
        <ele>161.16</ele>
        <time>2012-04-19T08:17:47Z</time>
      </trkpt>
      <trkpt lat="48.68892" lon="1.71452">
        <ele>161.64</ele>
        <time>2012-04-19T08:18:07Z</time>
      </trkpt>
      <trkpt lat="48.68889" lon="1.71446">
        <ele>161.64</ele>
        <time>2012-04-19T08:18:24Z</time>
      </trkpt>
      <trkpt lat="48.68881" lon="1.71433">
        <ele>161.64</ele>
        <time>2012-04-19T08:18:37Z</time>
      </trkpt>
      <trkpt lat="48.68865" lon="1.71404">
        <ele>160.68</ele>
        <time>2012-04-19T08:18:54Z</time>
      </trkpt>
      <trkpt lat="48.68852" lon="1.71382">
        <ele>159.72</ele>
        <time>2012-04-19T08:19:10Z</time>
      </trkpt>
      <trkpt lat="48.6884" lon="1.71353">
        <ele>161.64</ele>
        <time>2012-04-19T08:19:26Z</time>
      </trkpt>
      <trkpt lat="48.68834" lon="1.71344">
        <ele>162.12</ele>
        <time>2012-04-19T08:19:33Z</time>
      </trkpt>
      <trkpt lat="48.68819" lon="1.7132">
        <ele>160.68</ele>
        <time>2012-04-19T08:19:50Z</time>
      </trkpt>
      <trkpt lat="48.68802" lon="1.71294">
        <ele>159.72</ele>
        <time>2012-04-19T08:20:07Z</time>
      </trkpt>
      <trkpt lat="48.68791" lon="1.71279">
        <ele>160.68</ele>
        <time>2012-04-19T08:20:19Z</time>
      </trkpt>
      <trkpt lat="48.68779" lon="1.71271">
        <ele>161.16</ele>
        <time>2012-04-19T08:20:34Z</time>
      </trkpt>
      <trkpt lat="48.68781" lon="1.71271">
        <ele>161.16</ele>
        <time>2012-04-19T08:20:49Z</time>
      </trkpt>
      <trkpt lat="48.68781" lon="1.71271">
        <ele>161.16</ele>
        <time>2012-04-19T08:21:20Z</time>
      </trkpt>
      <trkpt lat="48.68781" lon="1.71271">
        <ele>161.16</ele>
        <time>2012-04-19T08:21:22Z</time>
      </trkpt>
      <trkpt lat="48.68768" lon="1.71296">
        <ele>162.6</ele>
        <time>2012-04-19T08:21:38Z</time>
      </trkpt>
      <trkpt lat="48.68753" lon="1.71318">
        <ele>165.96</ele>
        <time>2012-04-19T08:21:55Z</time>
      </trkpt>
      <trkpt lat="48.68745" lon="1.7133">
        <ele>169.81</ele>
        <time>2012-04-19T08:22:05Z</time>
      </trkpt>
      <trkpt lat="48.68729" lon="1.71355">
        <ele>171.73</ele>
        <time>2012-04-19T08:22:21Z</time>
      </trkpt>
      <trkpt lat="48.68721" lon="1.71366">
        <ele>171.73</ele>
        <time>2012-04-19T08:22:32Z</time>
      </trkpt>
      <trkpt lat="48.68705" lon="1.71392">
        <ele>168.85</ele>
        <time>2012-04-19T08:22:50Z</time>
      </trkpt>
      <trkpt lat="48.68692" lon="1.71412">
        <ele>169.33</ele>
        <time>2012-04-19T08:23:03Z</time>
      </trkpt>
      <trkpt lat="48.68679" lon="1.71435">
        <ele>167.41</ele>
        <time>2012-04-19T08:23:18Z</time>
      </trkpt>
      <trkpt lat="48.68673" lon="1.71447">
        <ele>167.89</ele>
        <time>2012-04-19T08:23:24Z</time>
      </trkpt>
      <trkpt lat="48.68662" lon="1.71462">
        <ele>165.96</ele>
        <time>2012-04-19T08:23:37Z</time>
      </trkpt>
      <trkpt lat="48.68657" lon="1.71469">
        <ele>165.48</ele>
        <time>2012-04-19T08:23:42Z</time>
      </trkpt>
      <trkpt lat="48.68641" lon="1.71496">
        <ele>165.96</ele>
        <time>2012-04-19T08:23:58Z</time>
      </trkpt>
      <trkpt lat="48.68629" lon="1.71516">
        <ele>166.45</ele>
        <time>2012-04-19T08:24:11Z</time>
      </trkpt>
      <trkpt lat="48.68627" lon="1.71522">
        <ele>165.96</ele>
        <time>2012-04-19T08:24:15Z</time>
      </trkpt>
      <trkpt lat="48.68617" lon="1.71539">
        <ele>164.04</ele>
        <time>2012-04-19T08:24:28Z</time>
      </trkpt>
      <trkpt lat="48.68601" lon="1.7156">
        <ele>165</ele>
        <time>2012-04-19T08:24:41Z</time>
      </trkpt>
      <trkpt lat="48.68591" lon="1.71578">
        <ele>164.04</ele>
        <time>2012-04-19T08:24:54Z</time>
      </trkpt>
      <trkpt lat="48.68577" lon="1.71602">
        <ele>164.04</ele>
        <time>2012-04-19T08:25:08Z</time>
      </trkpt>
      <trkpt lat="48.68565" lon="1.71619">
        <ele>164.52</ele>
        <time>2012-04-19T08:25:21Z</time>
      </trkpt>
      <trkpt lat="48.68556" lon="1.71642">
        <ele>164.04</ele>
        <time>2012-04-19T08:25:36Z</time>
      </trkpt>
      <trkpt lat="48.68555" lon="1.71646">
        <ele>164.04</ele>
        <time>2012-04-19T08:25:54Z</time>
      </trkpt>
      <trkpt lat="48.68544" lon="1.71661">
        <ele>164.04</ele>
        <time>2012-04-19T08:26:04Z</time>
      </trkpt>
      <trkpt lat="48.6853" lon="1.71683">
        <ele>165.96</ele>
        <time>2012-04-19T08:26:17Z</time>
      </trkpt>
      <trkpt lat="48.68515" lon="1.71708">
        <ele>165.48</ele>
        <time>2012-04-19T08:26:35Z</time>
      </trkpt>
      <trkpt lat="48.68505" lon="1.71722">
        <ele>165.48</ele>
        <time>2012-04-19T08:26:48Z</time>
      </trkpt>
      <trkpt lat="48.68494" lon="1.71737">
        <ele>165.48</ele>
        <time>2012-04-19T08:26:58Z</time>
      </trkpt>
      <trkpt lat="48.6848" lon="1.71757">
        <ele>166.93</ele>
        <time>2012-04-19T08:27:11Z</time>
      </trkpt>
      <trkpt lat="48.68475" lon="1.71765">
        <ele>165.96</ele>
        <time>2012-04-19T08:27:19Z</time>
      </trkpt>
      <trkpt lat="48.68467" lon="1.7178">
        <ele>167.41</ele>
        <time>2012-04-19T08:27:27Z</time>
      </trkpt>
      <trkpt lat="48.68453" lon="1.71803">
        <ele>167.89</ele>
        <time>2012-04-19T08:27:42Z</time>
      </trkpt>
      <trkpt lat="48.68446" lon="1.71816">
        <ele>166.93</ele>
        <time>2012-04-19T08:27:56Z</time>
      </trkpt>
      <trkpt lat="48.68441" lon="1.71825">
        <ele>167.89</ele>
        <time>2012-04-19T08:28:05Z</time>
      </trkpt>
      <trkpt lat="48.68427" lon="1.71846">
        <ele>166.45</ele>
        <time>2012-04-19T08:28:22Z</time>
      </trkpt>
      <trkpt lat="48.68415" lon="1.71862">
        <ele>167.89</ele>
        <time>2012-04-19T08:28:37Z</time>
      </trkpt>
      <trkpt lat="48.68402" lon="1.71887">
        <ele>169.81</ele>
        <time>2012-04-19T08:28:51Z</time>
      </trkpt>
      <trkpt lat="48.68392" lon="1.71905">
        <ele>170.29</ele>
        <time>2012-04-19T08:29:03Z</time>
      </trkpt>
      <trkpt lat="48.68381" lon="1.7192">
        <ele>169.33</ele>
        <time>2012-04-19T08:29:16Z</time>
      </trkpt>
      <trkpt lat="48.68375" lon="1.71931">
        <ele>167.89</ele>
        <time>2012-04-19T08:29:31Z</time>
      </trkpt>
      <trkpt lat="48.6836" lon="1.71956">
        <ele>168.37</ele>
        <time>2012-04-19T08:29:47Z</time>
      </trkpt>
      <trkpt lat="48.68359" lon="1.71957">
        <ele>168.37</ele>
        <time>2012-04-19T08:29:48Z</time>
      </trkpt>
      <trkpt lat="48.68355" lon="1.71962">
        <ele>168.37</ele>
        <time>2012-04-19T08:29:52Z</time>
      </trkpt>
      <trkpt lat="48.68346" lon="1.71982">
        <ele>168.85</ele>
        <time>2012-04-19T08:30:03Z</time>
      </trkpt>
      <trkpt lat="48.68341" lon="1.71991">
        <ele>167.41</ele>
        <time>2012-04-19T08:30:10Z</time>
      </trkpt>
      <trkpt lat="48.68339" lon="1.71992">
        <ele>167.41</ele>
        <time>2012-04-19T08:30:12Z</time>
      </trkpt>
      <trkpt lat="48.68328" lon="1.72011">
        <ele>166.45</ele>
        <time>2012-04-19T08:30:25Z</time>
      </trkpt>
      <trkpt lat="48.68318" lon="1.72027">
        <ele>164.04</ele>
        <time>2012-04-19T08:30:40Z</time>
      </trkpt>
      <trkpt lat="48.68311" lon="1.72041">
        <ele>163.08</ele>
        <time>2012-04-19T08:30:58Z</time>
      </trkpt>
      <trkpt lat="48.68299" lon="1.72063">
        <ele>165.48</ele>
        <time>2012-04-19T08:31:14Z</time>
      </trkpt>
      <trkpt lat="48.68292" lon="1.72075">
        <ele>167.41</ele>
        <time>2012-04-19T08:31:24Z</time>
      </trkpt>
      <trkpt lat="48.68281" lon="1.72092">
        <ele>168.37</ele>
        <time>2012-04-19T08:31:34Z</time>
      </trkpt>
      <trkpt lat="48.68272" lon="1.7211">
        <ele>170.77</ele>
        <time>2012-04-19T08:31:46Z</time>
      </trkpt>
      <trkpt lat="48.68265" lon="1.72119">
        <ele>170.77</ele>
        <time>2012-04-19T08:31:53Z</time>
      </trkpt>
      <trkpt lat="48.68254" lon="1.72134">
        <ele>171.73</ele>
        <time>2012-04-19T08:32:06Z</time>
      </trkpt>
      <trkpt lat="48.68247" lon="1.72141">
        <ele>171.73</ele>
        <time>2012-04-19T08:32:12Z</time>
      </trkpt>
      <trkpt lat="48.68233" lon="1.72163">
        <ele>172.21</ele>
        <time>2012-04-19T08:32:27Z</time>
      </trkpt>
      <trkpt lat="48.68228" lon="1.72172">
        <ele>171.73</ele>
        <time>2012-04-19T08:32:33Z</time>
      </trkpt>
      <trkpt lat="48.68224" lon="1.72178">
        <ele>171.73</ele>
        <time>2012-04-19T08:32:37Z</time>
      </trkpt>
      <trkpt lat="48.68216" lon="1.72191">
        <ele>170.77</ele>
        <time>2012-04-19T08:32:47Z</time>
      </trkpt>
      <trkpt lat="48.68209" lon="1.72202">
        <ele>171.25</ele>
        <time>2012-04-19T08:32:55Z</time>
      </trkpt>
      <trkpt lat="48.68207" lon="1.72204">
        <ele>171.25</ele>
        <time>2012-04-19T08:32:57Z</time>
      </trkpt>
      <trkpt lat="48.682" lon="1.7222">
        <ele>172.21</ele>
        <time>2012-04-19T08:33:08Z</time>
      </trkpt>
      <trkpt lat="48.68188" lon="1.72237">
        <ele>169.81</ele>
        <time>2012-04-19T08:33:21Z</time>
      </trkpt>
      <trkpt lat="48.68178" lon="1.72251">
        <ele>167.41</ele>
        <time>2012-04-19T08:33:33Z</time>
      </trkpt>
      <trkpt lat="48.68171" lon="1.72266">
        <ele>166.93</ele>
        <time>2012-04-19T08:33:44Z</time>
      </trkpt>
      <trkpt lat="48.68164" lon="1.72284">
        <ele>167.41</ele>
        <time>2012-04-19T08:33:55Z</time>
      </trkpt>
      <trkpt lat="48.68153" lon="1.723">
        <ele>166.45</ele>
        <time>2012-04-19T08:34:07Z</time>
      </trkpt>
      <trkpt lat="48.6814" lon="1.7232">
        <ele>165</ele>
        <time>2012-04-19T08:34:22Z</time>
      </trkpt>
      <trkpt lat="48.6813" lon="1.72333">
        <ele>163.56</ele>
        <time>2012-04-19T08:34:35Z</time>
      </trkpt>
      <trkpt lat="48.68129" lon="1.72335">
        <ele>163.56</ele>
        <time>2012-04-19T08:34:54Z</time>
      </trkpt>
      <trkpt lat="48.68129" lon="1.72335">
        <ele>164.04</ele>
        <time>2012-04-19T08:35:20Z</time>
      </trkpt>
      <trkpt lat="48.68129" lon="1.72335">
        <ele>164.04</ele>
        <time>2012-04-19T08:35:52Z</time>
      </trkpt>
      <trkpt lat="48.68128" lon="1.72335">
        <ele>163.56</ele>
        <time>2012-04-19T08:36:14Z</time>
      </trkpt>
      <trkpt lat="48.68128" lon="1.72335">
        <ele>163.56</ele>
        <time>2012-04-19T08:36:42Z</time>
      </trkpt>
      <trkpt lat="48.68128" lon="1.72335">
        <ele>163.56</ele>
        <time>2012-04-19T08:37:05Z</time>
      </trkpt>
      <trkpt lat="48.68128" lon="1.72336">
        <ele>163.56</ele>
        <time>2012-04-19T08:37:32Z</time>
      </trkpt>
      <trkpt lat="48.68108" lon="1.72353">
        <ele>168.37</ele>
        <time>2012-04-19T08:37:49Z</time>
      </trkpt>
      <trkpt lat="48.68101" lon="1.72358">
        <ele>169.81</ele>
        <time>2012-04-19T08:38:05Z</time>
      </trkpt>
      <trkpt lat="48.68082" lon="1.72375">
        <ele>170.29</ele>
        <time>2012-04-19T08:38:21Z</time>
      </trkpt>
      <trkpt lat="48.68062" lon="1.72393">
        <ele>169.81</ele>
        <time>2012-04-19T08:38:39Z</time>
      </trkpt>
      <trkpt lat="48.68046" lon="1.72408">
        <ele>170.29</ele>
        <time>2012-04-19T08:38:53Z</time>
      </trkpt>
      <trkpt lat="48.68025" lon="1.72427">
        <ele>170.29</ele>
        <time>2012-04-19T08:39:11Z</time>
      </trkpt>
      <trkpt lat="48.68008" lon="1.72442">
        <ele>169.33</ele>
        <time>2012-04-19T08:39:27Z</time>
      </trkpt>
      <trkpt lat="48.67999" lon="1.72449">
        <ele>169.81</ele>
        <time>2012-04-19T08:39:41Z</time>
      </trkpt>
      <trkpt lat="48.67984" lon="1.72461">
        <ele>170.29</ele>
        <time>2012-04-19T08:39:55Z</time>
      </trkpt>
      <trkpt lat="48.67963" lon="1.72479">
        <ele>168.85</ele>
        <time>2012-04-19T08:40:13Z</time>
      </trkpt>
      <trkpt lat="48.67956" lon="1.72485">
        <ele>169.33</ele>
        <time>2012-04-19T08:40:27Z</time>
      </trkpt>
      <trkpt lat="48.67946" lon="1.72494">
        <ele>169.33</ele>
        <time>2012-04-19T08:40:37Z</time>
      </trkpt>
      <trkpt lat="48.67925" lon="1.72513">
        <ele>168.37</ele>
        <time>2012-04-19T08:40:56Z</time>
      </trkpt>
      <trkpt lat="48.67904" lon="1.72529">
        <ele>168.85</ele>
        <time>2012-04-19T08:41:12Z</time>
      </trkpt>
      <trkpt lat="48.67885" lon="1.72546">
        <ele>169.81</ele>
        <time>2012-04-19T08:41:28Z</time>
      </trkpt>
      <trkpt lat="48.67863" lon="1.72562">
        <ele>169.33</ele>
        <time>2012-04-19T08:41:45Z</time>
      </trkpt>
      <trkpt lat="48.67845" lon="1.72575">
        <ele>169.33</ele>
        <time>2012-04-19T08:42:01Z</time>
      </trkpt>
      <trkpt lat="48.67842" lon="1.72579">
        <ele>169.33</ele>
        <time>2012-04-19T08:42:17Z</time>
      </trkpt>
      <trkpt lat="48.67834" lon="1.72584">
        <ele>169.81</ele>
        <time>2012-04-19T08:42:24Z</time>
      </trkpt>
      <trkpt lat="48.67813" lon="1.72599">
        <ele>170.29</ele>
        <time>2012-04-19T08:42:41Z</time>
      </trkpt>
      <trkpt lat="48.6781" lon="1.72602">
        <ele>170.77</ele>
        <time>2012-04-19T08:42:44Z</time>
      </trkpt>
      <trkpt lat="48.67805" lon="1.72608">
        <ele>170.77</ele>
        <time>2012-04-19T08:42:48Z</time>
      </trkpt>
      <trkpt lat="48.67799" lon="1.72614">
        <ele>171.25</ele>
        <time>2012-04-19T08:42:53Z</time>
      </trkpt>
      <trkpt lat="48.6778" lon="1.72632">
        <ele>172.21</ele>
        <time>2012-04-19T08:43:08Z</time>
      </trkpt>
      <trkpt lat="48.67773" lon="1.72638">
        <ele>172.69</ele>
        <time>2012-04-19T08:43:15Z</time>
      </trkpt>
      <trkpt lat="48.67769" lon="1.72643">
        <ele>172.69</ele>
        <time>2012-04-19T08:43:20Z</time>
      </trkpt>
      <trkpt lat="48.6776" lon="1.7265">
        <ele>172.69</ele>
        <time>2012-04-19T08:43:27Z</time>
      </trkpt>
      <trkpt lat="48.6774" lon="1.72666">
        <ele>172.69</ele>
        <time>2012-04-19T08:43:44Z</time>
      </trkpt>
      <trkpt lat="48.67722" lon="1.72679">
        <ele>172.69</ele>
        <time>2012-04-19T08:43:59Z</time>
      </trkpt>
      <trkpt lat="48.67719" lon="1.7268">
        <ele>172.69</ele>
        <time>2012-04-19T08:44:01Z</time>
      </trkpt>
      <trkpt lat="48.67705" lon="1.72695">
        <ele>172.21</ele>
        <time>2012-04-19T08:44:16Z</time>
      </trkpt>
      <trkpt lat="48.67698" lon="1.72703">
        <ele>171.25</ele>
        <time>2012-04-19T08:44:22Z</time>
      </trkpt>
      <trkpt lat="48.67683" lon="1.72713">
        <ele>169.33</ele>
        <time>2012-04-19T08:44:37Z</time>
      </trkpt>
      <trkpt lat="48.67665" lon="1.72725">
        <ele>169.81</ele>
        <time>2012-04-19T08:44:51Z</time>
      </trkpt>
      <trkpt lat="48.67644" lon="1.7274">
        <ele>168.37</ele>
        <time>2012-04-19T08:45:08Z</time>
      </trkpt>
      <trkpt lat="48.67634" lon="1.72755">
        <ele>168.85</ele>
        <time>2012-04-19T08:45:19Z</time>
      </trkpt>
      <trkpt lat="48.6762" lon="1.72774">
        <ele>168.85</ele>
        <time>2012-04-19T08:45:34Z</time>
      </trkpt>
      <trkpt lat="48.67614" lon="1.72783">
        <ele>168.85</ele>
        <time>2012-04-19T08:45:50Z</time>
      </trkpt>
      <trkpt lat="48.67619" lon="1.72779">
        <ele>167.89</ele>
        <time>2012-04-19T08:46:07Z</time>
      </trkpt>
      <trkpt lat="48.6762" lon="1.72777">
        <ele>167.41</ele>
        <time>2012-04-19T08:46:09Z</time>
      </trkpt>
      <trkpt lat="48.6762" lon="1.72771">
        <ele>166.45</ele>
        <time>2012-04-19T08:46:22Z</time>
      </trkpt>
      <trkpt lat="48.6762" lon="1.72775">
        <ele>166.45</ele>
        <time>2012-04-19T08:46:40Z</time>
      </trkpt>
      <trkpt lat="48.67607" lon="1.72793">
        <ele>167.41</ele>
        <time>2012-04-19T08:46:58Z</time>
      </trkpt>
      <trkpt lat="48.676" lon="1.72802">
        <ele>166.93</ele>
        <time>2012-04-19T08:47:14Z</time>
      </trkpt>
      <trkpt lat="48.67592" lon="1.72811">
        <ele>166.93</ele>
        <time>2012-04-19T08:47:23Z</time>
      </trkpt>
      <trkpt lat="48.67589" lon="1.72815">
        <ele>166.45</ele>
        <time>2012-04-19T08:47:26Z</time>
      </trkpt>
      <trkpt lat="48.67579" lon="1.72828">
        <ele>166.93</ele>
        <time>2012-04-19T08:47:40Z</time>
      </trkpt>
      <trkpt lat="48.67578" lon="1.72829">
        <ele>166.45</ele>
        <time>2012-04-19T08:47:41Z</time>
      </trkpt>
      <trkpt lat="48.67562" lon="1.72849">
        <ele>166.45</ele>
        <time>2012-04-19T08:47:58Z</time>
      </trkpt>
      <trkpt lat="48.67545" lon="1.72865">
        <ele>165.96</ele>
        <time>2012-04-19T08:48:12Z</time>
      </trkpt>
      <trkpt lat="48.67528" lon="1.72884">
        <ele>165</ele>
        <time>2012-04-19T08:48:27Z</time>
      </trkpt>
      <trkpt lat="48.67508" lon="1.72905">
        <ele>165</ele>
        <time>2012-04-19T08:48:44Z</time>
      </trkpt>
      <trkpt lat="48.67492" lon="1.72925">
        <ele>165.48</ele>
        <time>2012-04-19T08:49:00Z</time>
      </trkpt>
      <trkpt lat="48.67487" lon="1.7293">
        <ele>165.48</ele>
        <time>2012-04-19T08:49:04Z</time>
      </trkpt>
      <trkpt lat="48.67481" lon="1.72937">
        <ele>165.48</ele>
        <time>2012-04-19T08:49:10Z</time>
      </trkpt>
      <trkpt lat="48.67479" lon="1.72938">
        <ele>165.48</ele>
        <time>2012-04-19T08:49:12Z</time>
      </trkpt>
      <trkpt lat="48.67471" lon="1.72946">
        <ele>164.04</ele>
        <time>2012-04-19T08:49:18Z</time>
      </trkpt>
      <trkpt lat="48.6746" lon="1.72961">
        <ele>163.08</ele>
        <time>2012-04-19T08:49:31Z</time>
      </trkpt>
      <trkpt lat="48.67448" lon="1.72973">
        <ele>163.08</ele>
        <time>2012-04-19T08:49:42Z</time>
      </trkpt>
      <trkpt lat="48.67432" lon="1.72991">
        <ele>163.08</ele>
        <time>2012-04-19T08:49:57Z</time>
      </trkpt>
      <trkpt lat="48.67417" lon="1.73007">
        <ele>161.64</ele>
        <time>2012-04-19T08:50:12Z</time>
      </trkpt>
      <trkpt lat="48.67407" lon="1.73019">
        <ele>159.24</ele>
        <time>2012-04-19T08:50:26Z</time>
      </trkpt>
      <trkpt lat="48.67394" lon="1.73033">
        <ele>156.83</ele>
        <time>2012-04-19T08:50:42Z</time>
      </trkpt>
      <trkpt lat="48.67382" lon="1.7305">
        <ele>154.91</ele>
        <time>2012-04-19T08:50:57Z</time>
      </trkpt>
      <trkpt lat="48.67371" lon="1.73067">
        <ele>156.83</ele>
        <time>2012-04-19T08:51:11Z</time>
      </trkpt>
      <trkpt lat="48.67365" lon="1.73076">
        <ele>157.31</ele>
        <time>2012-04-19T08:51:18Z</time>
      </trkpt>
      <trkpt lat="48.67357" lon="1.73086">
        <ele>157.31</ele>
        <time>2012-04-19T08:51:27Z</time>
      </trkpt>
      <trkpt lat="48.67351" lon="1.73092">
        <ele>157.31</ele>
        <time>2012-04-19T08:51:32Z</time>
      </trkpt>
      <trkpt lat="48.67334" lon="1.73108">
        <ele>159.72</ele>
        <time>2012-04-19T08:51:46Z</time>
      </trkpt>
      <trkpt lat="48.6733" lon="1.73118">
        <ele>160.68</ele>
        <time>2012-04-19T08:51:53Z</time>
      </trkpt>
      <trkpt lat="48.67325" lon="1.73121">
        <ele>162.6</ele>
        <time>2012-04-19T08:52:08Z</time>
      </trkpt>
      <trkpt lat="48.67323" lon="1.73123">
        <ele>163.08</ele>
        <time>2012-04-19T08:52:26Z</time>
      </trkpt>
      <trkpt lat="48.67305" lon="1.73134">
        <ele>164.52</ele>
        <time>2012-04-19T08:52:41Z</time>
      </trkpt>
      <trkpt lat="48.67296" lon="1.73137">
        <ele>163.56</ele>
        <time>2012-04-19T08:52:49Z</time>
      </trkpt>
      <trkpt lat="48.67284" lon="1.73146">
        <ele>164.52</ele>
        <time>2012-04-19T08:53:05Z</time>
      </trkpt>
      <trkpt lat="48.67279" lon="1.73145">
        <ele>164.52</ele>
        <time>2012-04-19T08:53:08Z</time>
      </trkpt>
      <trkpt lat="48.67256" lon="1.73136">
        <ele>165</ele>
        <time>2012-04-19T08:53:22Z</time>
      </trkpt>
      <trkpt lat="48.67241" lon="1.73125">
        <ele>164.04</ele>
        <time>2012-04-19T08:53:34Z</time>
      </trkpt>
      <trkpt lat="48.67227" lon="1.73112">
        <ele>164.04</ele>
        <time>2012-04-19T08:53:47Z</time>
      </trkpt>
      <trkpt lat="48.67218" lon="1.73101">
        <ele>164.04</ele>
        <time>2012-04-19T08:54:03Z</time>
      </trkpt>
      <trkpt lat="48.67212" lon="1.73096">
        <ele>163.56</ele>
        <time>2012-04-19T08:54:11Z</time>
      </trkpt>
      <trkpt lat="48.67212" lon="1.73097">
        <ele>164.04</ele>
        <time>2012-04-19T08:54:17Z</time>
      </trkpt>
      <trkpt lat="48.67201" lon="1.73079">
        <ele>162.6</ele>
        <time>2012-04-19T08:54:30Z</time>
      </trkpt>
      <trkpt lat="48.67191" lon="1.73062">
        <ele>160.68</ele>
        <time>2012-04-19T08:54:41Z</time>
      </trkpt>
      <trkpt lat="48.67188" lon="1.73048">
        <ele>160.2</ele>
        <time>2012-04-19T08:54:54Z</time>
      </trkpt>
      <trkpt lat="48.67186" lon="1.73041">
        <ele>161.16</ele>
        <time>2012-04-19T08:55:08Z</time>
      </trkpt>
      <trkpt lat="48.67178" lon="1.73024">
        <ele>160.2</ele>
        <time>2012-04-19T08:55:25Z</time>
      </trkpt>
      <trkpt lat="48.67179" lon="1.73005">
        <ele>158.75</ele>
        <time>2012-04-19T08:55:39Z</time>
      </trkpt>
      <trkpt lat="48.67179" lon="1.72996">
        <ele>157.79</ele>
        <time>2012-04-19T08:55:45Z</time>
      </trkpt>
      <trkpt lat="48.67169" lon="1.72967">
        <ele>153.95</ele>
        <time>2012-04-19T08:56:00Z</time>
      </trkpt>
      <trkpt lat="48.67156" lon="1.72945">
        <ele>152.51</ele>
        <time>2012-04-19T08:56:15Z</time>
      </trkpt>
      <trkpt lat="48.67155" lon="1.72944">
        <ele>152.51</ele>
        <time>2012-04-19T08:56:16Z</time>
      </trkpt>
      <trkpt lat="48.67142" lon="1.72928">
        <ele>149.62</ele>
        <time>2012-04-19T08:56:30Z</time>
      </trkpt>
      <trkpt lat="48.67127" lon="1.72913">
        <ele>145.3</ele>
        <time>2012-04-19T08:56:45Z</time>
      </trkpt>
      <trkpt lat="48.67125" lon="1.7291">
        <ele>144.82</ele>
        <time>2012-04-19T08:57:03Z</time>
      </trkpt>
      <trkpt lat="48.67118" lon="1.7291">
        <ele>144.34</ele>
        <time>2012-04-19T08:57:20Z</time>
      </trkpt>
      <trkpt lat="48.67114" lon="1.72899">
        <ele>144.34</ele>
        <time>2012-04-19T08:57:42Z</time>
      </trkpt>
      <trkpt lat="48.67121" lon="1.72905">
        <ele>143.85</ele>
        <time>2012-04-19T08:57:59Z</time>
      </trkpt>
      <trkpt lat="48.67132" lon="1.72893">
        <ele>140.01</ele>
        <time>2012-04-19T08:58:11Z</time>
      </trkpt>
      <trkpt lat="48.67154" lon="1.72895">
        <ele>139.05</ele>
        <time>2012-04-19T08:58:27Z</time>
      </trkpt>
      <trkpt lat="48.67166" lon="1.72891">
        <ele>139.53</ele>
        <time>2012-04-19T08:58:38Z</time>
      </trkpt>
      <trkpt lat="48.67183" lon="1.72888">
        <ele>142.89</ele>
        <time>2012-04-19T08:58:49Z</time>
      </trkpt>
      <trkpt lat="48.67195" lon="1.72882">
        <ele>141.45</ele>
        <time>2012-04-19T08:59:02Z</time>
      </trkpt>
      <trkpt lat="48.67209" lon="1.72876">
        <ele>141.45</ele>
        <time>2012-04-19T08:59:14Z</time>
      </trkpt>
      <trkpt lat="48.67215" lon="1.72874">
        <ele>141.93</ele>
        <time>2012-04-19T08:59:18Z</time>
      </trkpt>
      <trkpt lat="48.67233" lon="1.72865">
        <ele>141.45</ele>
        <time>2012-04-19T08:59:32Z</time>
      </trkpt>
      <trkpt lat="48.67251" lon="1.72858">
        <ele>140.01</ele>
        <time>2012-04-19T08:59:47Z</time>
      </trkpt>
      <trkpt lat="48.67274" lon="1.72847">
        <ele>142.41</ele>
        <time>2012-04-19T09:00:02Z</time>
      </trkpt>
      <trkpt lat="48.67278" lon="1.72839">
        <ele>142.41</ele>
        <time>2012-04-19T09:00:09Z</time>
      </trkpt>
      <trkpt lat="48.67288" lon="1.72816">
        <ele>142.89</ele>
        <time>2012-04-19T09:00:21Z</time>
      </trkpt>
      <trkpt lat="48.6729" lon="1.72801">
        <ele>143.37</ele>
        <time>2012-04-19T09:00:27Z</time>
      </trkpt>
      <trkpt lat="48.67295" lon="1.72775">
        <ele>147.22</ele>
        <time>2012-04-19T09:00:39Z</time>
      </trkpt>
      <trkpt lat="48.67297" lon="1.72764">
        <ele>147.7</ele>
        <time>2012-04-19T09:00:50Z</time>
      </trkpt>
      <trkpt lat="48.67308" lon="1.72749">
        <ele>146.74</ele>
        <time>2012-04-19T09:01:02Z</time>
      </trkpt>
      <trkpt lat="48.67316" lon="1.72723">
        <ele>147.22</ele>
        <time>2012-04-19T09:01:15Z</time>
      </trkpt>
      <trkpt lat="48.67314" lon="1.72714">
        <ele>146.26</ele>
        <time>2012-04-19T09:01:29Z</time>
      </trkpt>
      <trkpt lat="48.67315" lon="1.7271">
        <ele>144.82</ele>
        <time>2012-04-19T09:01:45Z</time>
      </trkpt>
      <trkpt lat="48.67317" lon="1.72703">
        <ele>144.82</ele>
        <time>2012-04-19T09:02:04Z</time>
      </trkpt>
      <trkpt lat="48.67322" lon="1.72681">
        <ele>141.45</ele>
        <time>2012-04-19T09:02:15Z</time>
      </trkpt>
      <trkpt lat="48.67326" lon="1.72671">
        <ele>139.53</ele>
        <time>2012-04-19T09:02:19Z</time>
      </trkpt>
      <trkpt lat="48.67328" lon="1.72664">
        <ele>141.45</ele>
        <time>2012-04-19T09:02:22Z</time>
      </trkpt>
      <trkpt lat="48.67336" lon="1.72656">
        <ele>143.37</ele>
        <time>2012-04-19T09:02:26Z</time>
      </trkpt>
      <trkpt lat="48.67346" lon="1.72638">
        <ele>147.7</ele>
        <time>2012-04-19T09:02:37Z</time>
      </trkpt>
      <trkpt lat="48.67347" lon="1.72632">
        <ele>148.66</ele>
        <time>2012-04-19T09:02:40Z</time>
      </trkpt>
      <trkpt lat="48.6735" lon="1.72608">
        <ele>150.1</ele>
        <time>2012-04-19T09:02:54Z</time>
      </trkpt>
      <trkpt lat="48.67356" lon="1.72583">
        <ele>149.14</ele>
        <time>2012-04-19T09:03:08Z</time>
      </trkpt>
      <trkpt lat="48.67358" lon="1.72574">
        <ele>148.66</ele>
        <time>2012-04-19T09:03:14Z</time>
      </trkpt>
      <trkpt lat="48.6736" lon="1.7257">
        <ele>148.66</ele>
        <time>2012-04-19T09:03:16Z</time>
      </trkpt>
      <trkpt lat="48.67363" lon="1.7256">
        <ele>147.7</ele>
        <time>2012-04-19T09:03:22Z</time>
      </trkpt>
      <trkpt lat="48.67364" lon="1.72543">
        <ele>147.22</ele>
        <time>2012-04-19T09:03:30Z</time>
      </trkpt>
      <trkpt lat="48.67364" lon="1.72535">
        <ele>147.22</ele>
        <time>2012-04-19T09:03:35Z</time>
      </trkpt>
      <trkpt lat="48.67367" lon="1.72525">
        <ele>146.74</ele>
        <time>2012-04-19T09:03:42Z</time>
      </trkpt>
      <trkpt lat="48.67369" lon="1.72519">
        <ele>145.78</ele>
        <time>2012-04-19T09:03:46Z</time>
      </trkpt>
      <trkpt lat="48.67376" lon="1.72497">
        <ele>144.34</ele>
        <time>2012-04-19T09:04:00Z</time>
      </trkpt>
      <trkpt lat="48.67381" lon="1.72487">
        <ele>144.82</ele>
        <time>2012-04-19T09:04:10Z</time>
      </trkpt>
      <trkpt lat="48.67386" lon="1.72479">
        <ele>142.41</ele>
        <time>2012-04-19T09:04:16Z</time>
      </trkpt>
      <trkpt lat="48.67388" lon="1.72465">
        <ele>139.53</ele>
        <time>2012-04-19T09:04:25Z</time>
      </trkpt>
      <trkpt lat="48.67396" lon="1.72448">
        <ele>144.34</ele>
        <time>2012-04-19T09:04:37Z</time>
      </trkpt>
      <trkpt lat="48.67398" lon="1.72446">
        <ele>144.82</ele>
        <time>2012-04-19T09:04:52Z</time>
      </trkpt>
      <trkpt lat="48.67397" lon="1.72446">
        <ele>144.82</ele>
        <time>2012-04-19T09:05:22Z</time>
      </trkpt>
      <trkpt lat="48.67397" lon="1.72446">
        <ele>144.82</ele>
        <time>2012-04-19T09:05:53Z</time>
      </trkpt>
      <trkpt lat="48.67397" lon="1.72443">
        <ele>145.78</ele>
        <time>2012-04-19T09:06:09Z</time>
      </trkpt>
      <trkpt lat="48.67403" lon="1.72436">
        <ele>144.82</ele>
        <time>2012-04-19T09:06:23Z</time>
      </trkpt>
      <trkpt lat="48.67408" lon="1.72437">
        <ele>144.82</ele>
        <time>2012-04-19T09:06:42Z</time>
      </trkpt>
      <trkpt lat="48.67416" lon="1.72434">
        <ele>145.78</ele>
        <time>2012-04-19T09:06:50Z</time>
      </trkpt>
      <trkpt lat="48.67425" lon="1.72422">
        <ele>140.49</ele>
        <time>2012-04-19T09:07:00Z</time>
      </trkpt>
      <trkpt lat="48.67434" lon="1.72401">
        <ele>139.53</ele>
        <time>2012-04-19T09:07:14Z</time>
      </trkpt>
      <trkpt lat="48.67435" lon="1.72395">
        <ele>140.49</ele>
        <time>2012-04-19T09:07:18Z</time>
      </trkpt>
      <trkpt lat="48.67439" lon="1.72386">
        <ele>142.41</ele>
        <time>2012-04-19T09:07:30Z</time>
      </trkpt>
      <trkpt lat="48.67441" lon="1.72377">
        <ele>142.41</ele>
        <time>2012-04-19T09:07:36Z</time>
      </trkpt>
      <trkpt lat="48.67442" lon="1.72372">
        <ele>141.93</ele>
        <time>2012-04-19T09:07:39Z</time>
      </trkpt>
      <trkpt lat="48.67449" lon="1.72353">
        <ele>141.93</ele>
        <time>2012-04-19T09:07:51Z</time>
      </trkpt>
      <trkpt lat="48.67454" lon="1.72332">
        <ele>143.37</ele>
        <time>2012-04-19T09:08:04Z</time>
      </trkpt>
      <trkpt lat="48.67454" lon="1.72324">
        <ele>144.82</ele>
        <time>2012-04-19T09:08:15Z</time>
      </trkpt>
      <trkpt lat="48.67454" lon="1.72324">
        <ele>144.82</ele>
        <time>2012-04-19T09:08:31Z</time>
      </trkpt>
      <trkpt lat="48.67454" lon="1.7232">
        <ele>144.34</ele>
        <time>2012-04-19T09:08:39Z</time>
      </trkpt>
      <trkpt lat="48.67457" lon="1.72304">
        <ele>144.82</ele>
        <time>2012-04-19T09:08:45Z</time>
      </trkpt>
      <trkpt lat="48.67459" lon="1.72299">
        <ele>144.82</ele>
        <time>2012-04-19T09:08:47Z</time>
      </trkpt>
      <trkpt lat="48.67458" lon="1.72277">
        <ele>142.41</ele>
        <time>2012-04-19T09:08:57Z</time>
      </trkpt>
      <trkpt lat="48.67459" lon="1.72257">
        <ele>140.97</ele>
        <time>2012-04-19T09:09:10Z</time>
      </trkpt>
      <trkpt lat="48.67459" lon="1.72245">
        <ele>142.41</ele>
        <time>2012-04-19T09:09:15Z</time>
      </trkpt>
      <trkpt lat="48.67465" lon="1.72223">
        <ele>144.82</ele>
        <time>2012-04-19T09:09:31Z</time>
      </trkpt>
      <trkpt lat="48.67478" lon="1.72209">
        <ele>143.85</ele>
        <time>2012-04-19T09:09:45Z</time>
      </trkpt>
      <trkpt lat="48.67487" lon="1.72197">
        <ele>143.37</ele>
        <time>2012-04-19T09:09:58Z</time>
      </trkpt>
      <trkpt lat="48.67499" lon="1.72177">
        <ele>144.82</ele>
        <time>2012-04-19T09:10:13Z</time>
      </trkpt>
      <trkpt lat="48.67507" lon="1.72164">
        <ele>143.37</ele>
        <time>2012-04-19T09:10:21Z</time>
      </trkpt>
      <trkpt lat="48.67515" lon="1.7215">
        <ele>145.3</ele>
        <time>2012-04-19T09:10:32Z</time>
      </trkpt>
      <trkpt lat="48.67517" lon="1.72142">
        <ele>146.74</ele>
        <time>2012-04-19T09:10:40Z</time>
      </trkpt>
      <trkpt lat="48.67519" lon="1.72138">
        <ele>147.22</ele>
        <time>2012-04-19T09:10:43Z</time>
      </trkpt>
      <trkpt lat="48.67528" lon="1.7213">
        <ele>145.78</ele>
        <time>2012-04-19T09:10:53Z</time>
      </trkpt>
      <trkpt lat="48.67539" lon="1.72109">
        <ele>143.37</ele>
        <time>2012-04-19T09:11:06Z</time>
      </trkpt>
      <trkpt lat="48.67542" lon="1.72087">
        <ele>142.41</ele>
        <time>2012-04-19T09:11:17Z</time>
      </trkpt>
      <trkpt lat="48.67536" lon="1.7206">
        <ele>143.37</ele>
        <time>2012-04-19T09:11:30Z</time>
      </trkpt>
      <trkpt lat="48.67533" lon="1.72041">
        <ele>141.93</ele>
        <time>2012-04-19T09:11:40Z</time>
      </trkpt>
      <trkpt lat="48.67532" lon="1.7202">
        <ele>142.89</ele>
        <time>2012-04-19T09:11:49Z</time>
      </trkpt>
      <trkpt lat="48.67529" lon="1.72001">
        <ele>143.85</ele>
        <time>2012-04-19T09:11:58Z</time>
      </trkpt>
      <trkpt lat="48.67525" lon="1.71984">
        <ele>143.85</ele>
        <time>2012-04-19T09:12:09Z</time>
      </trkpt>
      <trkpt lat="48.67523" lon="1.71965">
        <ele>144.34</ele>
        <time>2012-04-19T09:12:20Z</time>
      </trkpt>
      <trkpt lat="48.67518" lon="1.71948">
        <ele>144.34</ele>
        <time>2012-04-19T09:12:27Z</time>
      </trkpt>
      <trkpt lat="48.67515" lon="1.71927">
        <ele>145.78</ele>
        <time>2012-04-19T09:12:40Z</time>
      </trkpt>
      <trkpt lat="48.67509" lon="1.71908">
        <ele>145.3</ele>
        <time>2012-04-19T09:12:51Z</time>
      </trkpt>
      <trkpt lat="48.67509" lon="1.71908">
        <ele>145.3</ele>
        <time>2012-04-19T09:13:10Z</time>
      </trkpt>
      <trkpt lat="48.67509" lon="1.71908">
        <ele>145.3</ele>
        <time>2012-04-19T09:13:30Z</time>
      </trkpt>
      <trkpt lat="48.67508" lon="1.71903">
        <ele>145.78</ele>
        <time>2012-04-19T09:13:56Z</time>
      </trkpt>
      <trkpt lat="48.67492" lon="1.71878">
        <ele>145.78</ele>
        <time>2012-04-19T09:14:10Z</time>
      </trkpt>
      <trkpt lat="48.67481" lon="1.71861">
        <ele>145.3</ele>
        <time>2012-04-19T09:14:21Z</time>
      </trkpt>
      <trkpt lat="48.67467" lon="1.71843">
        <ele>144.34</ele>
        <time>2012-04-19T09:14:32Z</time>
      </trkpt>
      <trkpt lat="48.67455" lon="1.71828">
        <ele>143.37</ele>
        <time>2012-04-19T09:14:46Z</time>
      </trkpt>
      <trkpt lat="48.67443" lon="1.71813">
        <ele>146.26</ele>
        <time>2012-04-19T09:14:57Z</time>
      </trkpt>
      <trkpt lat="48.67429" lon="1.71798">
        <ele>145.78</ele>
        <time>2012-04-19T09:15:12Z</time>
      </trkpt>
      <trkpt lat="48.67415" lon="1.7178">
        <ele>147.22</ele>
        <time>2012-04-19T09:15:26Z</time>
      </trkpt>
      <trkpt lat="48.67401" lon="1.71764">
        <ele>145.78</ele>
        <time>2012-04-19T09:15:39Z</time>
      </trkpt>
      <trkpt lat="48.67386" lon="1.71746">
        <ele>145.78</ele>
        <time>2012-04-19T09:15:52Z</time>
      </trkpt>
      <trkpt lat="48.67369" lon="1.71724">
        <ele>146.26</ele>
        <time>2012-04-19T09:16:09Z</time>
      </trkpt>
      <trkpt lat="48.67355" lon="1.71705">
        <ele>146.74</ele>
        <time>2012-04-19T09:16:23Z</time>
      </trkpt>
      <trkpt lat="48.67349" lon="1.71702">
        <ele>150.58</ele>
        <time>2012-04-19T09:16:35Z</time>
      </trkpt>
      <trkpt lat="48.67344" lon="1.71691">
        <ele>151.06</ele>
        <time>2012-04-19T09:16:52Z</time>
      </trkpt>
      <trkpt lat="48.67331" lon="1.71678">
        <ele>149.62</ele>
        <time>2012-04-19T09:17:04Z</time>
      </trkpt>
      <trkpt lat="48.6732" lon="1.71662">
        <ele>148.66</ele>
        <time>2012-04-19T09:17:15Z</time>
      </trkpt>
      <trkpt lat="48.67303" lon="1.7164">
        <ele>147.7</ele>
        <time>2012-04-19T09:17:30Z</time>
      </trkpt>
      <trkpt lat="48.67291" lon="1.71624">
        <ele>146.74</ele>
        <time>2012-04-19T09:17:43Z</time>
      </trkpt>
      <trkpt lat="48.67278" lon="1.71607">
        <ele>148.66</ele>
        <time>2012-04-19T09:17:55Z</time>
      </trkpt>
      <trkpt lat="48.67266" lon="1.71589">
        <ele>146.74</ele>
        <time>2012-04-19T09:18:08Z</time>
      </trkpt>
      <trkpt lat="48.67254" lon="1.71573">
        <ele>145.3</ele>
        <time>2012-04-19T09:18:20Z</time>
      </trkpt>
      <trkpt lat="48.67241" lon="1.71558">
        <ele>146.26</ele>
        <time>2012-04-19T09:18:31Z</time>
      </trkpt>
      <trkpt lat="48.67228" lon="1.71542">
        <ele>146.74</ele>
        <time>2012-04-19T09:18:43Z</time>
      </trkpt>
      <trkpt lat="48.67217" lon="1.71524">
        <ele>142.89</ele>
        <time>2012-04-19T09:18:55Z</time>
      </trkpt>
      <trkpt lat="48.67206" lon="1.71507">
        <ele>140.01</ele>
        <time>2012-04-19T09:19:09Z</time>
      </trkpt>
      <trkpt lat="48.67195" lon="1.71494">
        <ele>140.01</ele>
        <time>2012-04-19T09:19:24Z</time>
      </trkpt>
      <trkpt lat="48.67183" lon="1.71475">
        <ele>137.61</ele>
        <time>2012-04-19T09:19:36Z</time>
      </trkpt>
      <trkpt lat="48.67171" lon="1.71459">
        <ele>137.61</ele>
        <time>2012-04-19T09:19:45Z</time>
      </trkpt>
      <trkpt lat="48.67161" lon="1.71445">
        <ele>138.09</ele>
        <time>2012-04-19T09:19:56Z</time>
      </trkpt>
      <trkpt lat="48.67147" lon="1.71429">
        <ele>136.64</ele>
        <time>2012-04-19T09:20:09Z</time>
      </trkpt>
      <trkpt lat="48.67147" lon="1.71428">
        <ele>137.13</ele>
        <time>2012-04-19T09:20:10Z</time>
      </trkpt>
      <trkpt lat="48.67144" lon="1.71428">
        <ele>137.13</ele>
        <time>2012-04-19T09:20:12Z</time>
      </trkpt>
      <trkpt lat="48.67139" lon="1.71425">
        <ele>138.57</ele>
        <time>2012-04-19T09:20:16Z</time>
      </trkpt>
      <trkpt lat="48.67129" lon="1.71423">
        <ele>139.05</ele>
        <time>2012-04-19T09:20:23Z</time>
      </trkpt>
      <trkpt lat="48.67114" lon="1.71433">
        <ele>140.49</ele>
        <time>2012-04-19T09:20:37Z</time>
      </trkpt>
      <trkpt lat="48.67102" lon="1.71446">
        <ele>141.45</ele>
        <time>2012-04-19T09:20:49Z</time>
      </trkpt>
      <trkpt lat="48.67087" lon="1.71459">
        <ele>144.82</ele>
        <time>2012-04-19T09:21:03Z</time>
      </trkpt>
      <trkpt lat="48.67085" lon="1.7146">
        <ele>145.3</ele>
        <time>2012-04-19T09:21:05Z</time>
      </trkpt>
      <trkpt lat="48.67075" lon="1.71466">
        <ele>148.18</ele>
        <time>2012-04-19T09:21:12Z</time>
      </trkpt>
      <trkpt lat="48.67061" lon="1.71478">
        <ele>147.22</ele>
        <time>2012-04-19T09:21:24Z</time>
      </trkpt>
      <trkpt lat="48.67042" lon="1.71488">
        <ele>146.74</ele>
        <time>2012-04-19T09:21:39Z</time>
      </trkpt>
      <trkpt lat="48.67027" lon="1.71491">
        <ele>146.26</ele>
        <time>2012-04-19T09:21:50Z</time>
      </trkpt>
      <trkpt lat="48.6702" lon="1.71496">
        <ele>146.26</ele>
        <time>2012-04-19T09:21:55Z</time>
      </trkpt>
      <trkpt lat="48.67003" lon="1.71502">
        <ele>145.78</ele>
        <time>2012-04-19T09:22:08Z</time>
      </trkpt>
      <trkpt lat="48.66999" lon="1.71506">
        <ele>145.78</ele>
        <time>2012-04-19T09:22:11Z</time>
      </trkpt>
      <trkpt lat="48.66984" lon="1.71517">
        <ele>143.85</ele>
        <time>2012-04-19T09:22:24Z</time>
      </trkpt>
      <trkpt lat="48.66961" lon="1.71524">
        <ele>141.93</ele>
        <time>2012-04-19T09:22:40Z</time>
      </trkpt>
      <trkpt lat="48.66956" lon="1.71526">
        <ele>141.45</ele>
        <time>2012-04-19T09:22:44Z</time>
      </trkpt>
      <trkpt lat="48.66939" lon="1.71541">
        <ele>140.97</ele>
        <time>2012-04-19T09:22:58Z</time>
      </trkpt>
      <trkpt lat="48.66925" lon="1.7155">
        <ele>139.05</ele>
        <time>2012-04-19T09:23:12Z</time>
      </trkpt>
      <trkpt lat="48.66923" lon="1.71553">
        <ele>138.09</ele>
        <time>2012-04-19T09:23:15Z</time>
      </trkpt>
      <trkpt lat="48.6692" lon="1.71555">
        <ele>138.09</ele>
        <time>2012-04-19T09:23:17Z</time>
      </trkpt>
      <trkpt lat="48.6691" lon="1.71563">
        <ele>139.53</ele>
        <time>2012-04-19T09:23:26Z</time>
      </trkpt>
      <trkpt lat="48.66896" lon="1.71575">
        <ele>140.01</ele>
        <time>2012-04-19T09:23:38Z</time>
      </trkpt>
      <trkpt lat="48.66893" lon="1.7158">
        <ele>140.97</ele>
        <time>2012-04-19T09:23:41Z</time>
      </trkpt>
      <trkpt lat="48.66879" lon="1.71585">
        <ele>141.45</ele>
        <time>2012-04-19T09:23:52Z</time>
      </trkpt>
      <trkpt lat="48.66863" lon="1.71596">
        <ele>139.53</ele>
        <time>2012-04-19T09:24:07Z</time>
      </trkpt>
      <trkpt lat="48.66861" lon="1.71597">
        <ele>139.05</ele>
        <time>2012-04-19T09:24:12Z</time>
      </trkpt>
      <trkpt lat="48.66859" lon="1.71598">
        <ele>138.57</ele>
        <time>2012-04-19T09:24:14Z</time>
      </trkpt>
      <trkpt lat="48.66846" lon="1.71605">
        <ele>138.57</ele>
        <time>2012-04-19T09:24:28Z</time>
      </trkpt>
      <trkpt lat="48.66832" lon="1.71616">
        <ele>140.97</ele>
        <time>2012-04-19T09:24:44Z</time>
      </trkpt>
      <trkpt lat="48.66817" lon="1.7162">
        <ele>142.41</ele>
        <time>2012-04-19T09:24:58Z</time>
      </trkpt>
      <trkpt lat="48.66801" lon="1.71632">
        <ele>145.78</ele>
        <time>2012-04-19T09:25:12Z</time>
      </trkpt>
      <trkpt lat="48.66782" lon="1.71643">
        <ele>149.62</ele>
        <time>2012-04-19T09:25:30Z</time>
      </trkpt>
      <trkpt lat="48.66777" lon="1.71646">
        <ele>150.58</ele>
        <time>2012-04-19T09:25:46Z</time>
      </trkpt>
      <trkpt lat="48.66775" lon="1.71647">
        <ele>150.58</ele>
        <time>2012-04-19T09:25:48Z</time>
      </trkpt>
      <trkpt lat="48.66758" lon="1.71647">
        <ele>150.1</ele>
        <time>2012-04-19T09:26:01Z</time>
      </trkpt>
      <trkpt lat="48.66744" lon="1.71651">
        <ele>144.34</ele>
        <time>2012-04-19T09:26:12Z</time>
      </trkpt>
      <trkpt lat="48.66731" lon="1.71655">
        <ele>139.05</ele>
        <time>2012-04-19T09:26:23Z</time>
      </trkpt>
      <trkpt lat="48.66716" lon="1.71663">
        <ele>134.72</ele>
        <time>2012-04-19T09:26:37Z</time>
      </trkpt>
      <trkpt lat="48.66701" lon="1.71668">
        <ele>131.36</ele>
        <time>2012-04-19T09:26:49Z</time>
      </trkpt>
      <trkpt lat="48.66682" lon="1.71683">
        <ele>128.95</ele>
        <time>2012-04-19T09:27:04Z</time>
      </trkpt>
      <trkpt lat="48.6666" lon="1.7169">
        <ele>130.4</ele>
        <time>2012-04-19T09:27:19Z</time>
      </trkpt>
      <trkpt lat="48.66657" lon="1.71692">
        <ele>130.4</ele>
        <time>2012-04-19T09:27:22Z</time>
      </trkpt>
      <trkpt lat="48.6664" lon="1.71701">
        <ele>128.95</ele>
        <time>2012-04-19T09:27:36Z</time>
      </trkpt>
      <trkpt lat="48.66639" lon="1.71701">
        <ele>128.95</ele>
        <time>2012-04-19T09:27:53Z</time>
      </trkpt>
      <trkpt lat="48.66633" lon="1.71704">
        <ele>130.88</ele>
        <time>2012-04-19T09:28:12Z</time>
      </trkpt>
      <trkpt lat="48.66629" lon="1.71708">
        <ele>131.36</ele>
        <time>2012-04-19T09:28:16Z</time>
      </trkpt>
      <trkpt lat="48.66611" lon="1.71714">
        <ele>132.32</ele>
        <time>2012-04-19T09:28:31Z</time>
      </trkpt>
      <trkpt lat="48.6659" lon="1.71723">
        <ele>134.24</ele>
        <time>2012-04-19T09:28:47Z</time>
      </trkpt>
      <trkpt lat="48.66583" lon="1.71727">
        <ele>135.2</ele>
        <time>2012-04-19T09:28:53Z</time>
      </trkpt>
      <trkpt lat="48.66568" lon="1.71736">
        <ele>135.2</ele>
        <time>2012-04-19T09:29:05Z</time>
      </trkpt>
      <trkpt lat="48.66558" lon="1.71741">
        <ele>135.2</ele>
        <time>2012-04-19T09:29:13Z</time>
      </trkpt>
      <trkpt lat="48.66535" lon="1.71748">
        <ele>135.2</ele>
        <time>2012-04-19T09:29:30Z</time>
      </trkpt>
      <trkpt lat="48.6653" lon="1.71748">
        <ele>136.64</ele>
        <time>2012-04-19T09:29:34Z</time>
      </trkpt>
      <trkpt lat="48.66524" lon="1.71751">
        <ele>137.61</ele>
        <time>2012-04-19T09:29:38Z</time>
      </trkpt>
      <trkpt lat="48.66507" lon="1.71761">
        <ele>140.01</ele>
        <time>2012-04-19T09:29:52Z</time>
      </trkpt>
      <trkpt lat="48.6649" lon="1.71769">
        <ele>140.49</ele>
        <time>2012-04-19T09:30:04Z</time>
      </trkpt>
      <trkpt lat="48.66483" lon="1.71774">
        <ele>141.93</ele>
        <time>2012-04-19T09:30:10Z</time>
      </trkpt>
      <trkpt lat="48.66468" lon="1.7178">
        <ele>145.78</ele>
        <time>2012-04-19T09:30:23Z</time>
      </trkpt>
      <trkpt lat="48.66466" lon="1.71788">
        <ele>146.74</ele>
        <time>2012-04-19T09:30:28Z</time>
      </trkpt>
      <trkpt lat="48.66449" lon="1.71788">
        <ele>144.82</ele>
        <time>2012-04-19T09:30:37Z</time>
      </trkpt>
      <trkpt lat="48.66445" lon="1.71792">
        <ele>143.85</ele>
        <time>2012-04-19T09:30:41Z</time>
      </trkpt>
      <trkpt lat="48.66435" lon="1.71796">
        <ele>143.85</ele>
        <time>2012-04-19T09:30:49Z</time>
      </trkpt>
      <trkpt lat="48.66428" lon="1.71798">
        <ele>144.82</ele>
        <time>2012-04-19T09:30:54Z</time>
      </trkpt>
      <trkpt lat="48.66409" lon="1.71809">
        <ele>142.89</ele>
        <time>2012-04-19T09:31:09Z</time>
      </trkpt>
      <trkpt lat="48.66391" lon="1.71815">
        <ele>139.53</ele>
        <time>2012-04-19T09:31:22Z</time>
      </trkpt>
      <trkpt lat="48.66389" lon="1.71816">
        <ele>140.01</ele>
        <time>2012-04-19T09:31:24Z</time>
      </trkpt>
      <trkpt lat="48.66382" lon="1.71819">
        <ele>139.05</ele>
        <time>2012-04-19T09:31:30Z</time>
      </trkpt>
      <trkpt lat="48.66359" lon="1.71825">
        <ele>131.36</ele>
        <time>2012-04-19T09:31:48Z</time>
      </trkpt>
      <trkpt lat="48.6635" lon="1.71831">
        <ele>131.36</ele>
        <time>2012-04-19T09:31:56Z</time>
      </trkpt>
      <trkpt lat="48.6633" lon="1.71835">
        <ele>135.2</ele>
        <time>2012-04-19T09:32:10Z</time>
      </trkpt>
      <trkpt lat="48.66326" lon="1.71836">
        <ele>135.68</ele>
        <time>2012-04-19T09:32:12Z</time>
      </trkpt>
      <trkpt lat="48.6631" lon="1.71844">
        <ele>134.24</ele>
        <time>2012-04-19T09:32:24Z</time>
      </trkpt>
      <trkpt lat="48.66308" lon="1.71845">
        <ele>134.24</ele>
        <time>2012-04-19T09:32:26Z</time>
      </trkpt>
      <trkpt lat="48.6629" lon="1.71849">
        <ele>132.8</ele>
        <time>2012-04-19T09:32:40Z</time>
      </trkpt>
      <trkpt lat="48.66281" lon="1.71854">
        <ele>130.4</ele>
        <time>2012-04-19T09:32:53Z</time>
      </trkpt>
      <trkpt lat="48.66279" lon="1.71857">
        <ele>129.92</ele>
        <time>2012-04-19T09:33:13Z</time>
      </trkpt>
      <trkpt lat="48.66279" lon="1.71858">
        <ele>129.43</ele>
        <time>2012-04-19T09:33:35Z</time>
      </trkpt>
      <trkpt lat="48.66279" lon="1.71858">
        <ele>129.43</ele>
        <time>2012-04-19T09:33:50Z</time>
      </trkpt>
      <trkpt lat="48.66266" lon="1.71866">
        <ele>129.92</ele>
        <time>2012-04-19T09:34:02Z</time>
      </trkpt>
      <trkpt lat="48.66246" lon="1.71877">
        <ele>131.36</ele>
        <time>2012-04-19T09:34:15Z</time>
      </trkpt>
      <trkpt lat="48.66236" lon="1.71887">
        <ele>131.84</ele>
        <time>2012-04-19T09:34:28Z</time>
      </trkpt>
      <trkpt lat="48.66221" lon="1.71894">
        <ele>134.24</ele>
        <time>2012-04-19T09:34:41Z</time>
      </trkpt>
      <trkpt lat="48.66218" lon="1.71897">
        <ele>135.2</ele>
        <time>2012-04-19T09:34:56Z</time>
      </trkpt>
      <trkpt lat="48.66212" lon="1.719">
        <ele>135.68</ele>
        <time>2012-04-19T09:35:18Z</time>
      </trkpt>
      <trkpt lat="48.66211" lon="1.71901">
        <ele>135.68</ele>
        <time>2012-04-19T09:35:38Z</time>
      </trkpt>
      <trkpt lat="48.66211" lon="1.71901">
        <ele>135.68</ele>
        <time>2012-04-19T09:36:04Z</time>
      </trkpt>
      <trkpt lat="48.66195" lon="1.71905">
        <ele>135.68</ele>
        <time>2012-04-19T09:36:19Z</time>
      </trkpt>
      <trkpt lat="48.66179" lon="1.71911">
        <ele>137.61</ele>
        <time>2012-04-19T09:36:33Z</time>
      </trkpt>
      <trkpt lat="48.66163" lon="1.71924">
        <ele>139.53</ele>
        <time>2012-04-19T09:36:48Z</time>
      </trkpt>
      <trkpt lat="48.66162" lon="1.71943">
        <ele>139.05</ele>
        <time>2012-04-19T09:36:58Z</time>
      </trkpt>
      <trkpt lat="48.66164" lon="1.71957">
        <ele>135.68</ele>
        <time>2012-04-19T09:37:06Z</time>
      </trkpt>
      <trkpt lat="48.66166" lon="1.71964">
        <ele>133.28</ele>
        <time>2012-04-19T09:37:12Z</time>
      </trkpt>
      <trkpt lat="48.66167" lon="1.71982">
        <ele>132.32</ele>
        <time>2012-04-19T09:37:19Z</time>
      </trkpt>
      <trkpt lat="48.66168" lon="1.72005">
        <ele>131.84</ele>
        <time>2012-04-19T09:37:28Z</time>
      </trkpt>
      <trkpt lat="48.66171" lon="1.72019">
        <ele>133.28</ele>
        <time>2012-04-19T09:37:38Z</time>
      </trkpt>
      <trkpt lat="48.66174" lon="1.72055">
        <ele>137.13</ele>
        <time>2012-04-19T09:37:53Z</time>
      </trkpt>
      <trkpt lat="48.66174" lon="1.72057">
        <ele>137.13</ele>
        <time>2012-04-19T09:37:54Z</time>
      </trkpt>
      <trkpt lat="48.66174" lon="1.72063">
        <ele>137.61</ele>
        <time>2012-04-19T09:37:57Z</time>
      </trkpt>
      <trkpt lat="48.66178" lon="1.72079">
        <ele>140.01</ele>
        <time>2012-04-19T09:38:10Z</time>
      </trkpt>
      <trkpt lat="48.66178" lon="1.72079">
        <ele>140.01</ele>
        <time>2012-04-19T09:38:19Z</time>
      </trkpt>
      <trkpt lat="48.66178" lon="1.72099">
        <ele>142.41</ele>
        <time>2012-04-19T09:38:30Z</time>
      </trkpt>
      <trkpt lat="48.66181" lon="1.72116">
        <ele>143.85</ele>
        <time>2012-04-19T09:38:42Z</time>
      </trkpt>
      <trkpt lat="48.66181" lon="1.72122">
        <ele>144.34</ele>
        <time>2012-04-19T09:38:48Z</time>
      </trkpt>
      <trkpt lat="48.66184" lon="1.72146">
        <ele>144.82</ele>
        <time>2012-04-19T09:39:01Z</time>
      </trkpt>
      <trkpt lat="48.66187" lon="1.72192">
        <ele>146.74</ele>
        <time>2012-04-19T09:39:15Z</time>
      </trkpt>
      <trkpt lat="48.66192" lon="1.7222">
        <ele>141.45</ele>
        <time>2012-04-19T09:39:30Z</time>
      </trkpt>
      <trkpt lat="48.66196" lon="1.72241">
        <ele>137.61</ele>
        <time>2012-04-19T09:39:41Z</time>
      </trkpt>
      <trkpt lat="48.66196" lon="1.72258">
        <ele>134.72</ele>
        <time>2012-04-19T09:39:50Z</time>
      </trkpt>
      <trkpt lat="48.66199" lon="1.72279">
        <ele>131.36</ele>
        <time>2012-04-19T09:40:04Z</time>
      </trkpt>
      <trkpt lat="48.662" lon="1.72295">
        <ele>132.8</ele>
        <time>2012-04-19T09:40:10Z</time>
      </trkpt>
      <trkpt lat="48.66201" lon="1.72322">
        <ele>146.74</ele>
        <time>2012-04-19T09:40:25Z</time>
      </trkpt>
      <trkpt lat="48.66207" lon="1.7235">
        <ele>147.7</ele>
        <time>2012-04-19T09:40:40Z</time>
      </trkpt>
      <trkpt lat="48.6621" lon="1.72375">
        <ele>144.34</ele>
        <time>2012-04-19T09:40:53Z</time>
      </trkpt>
      <trkpt lat="48.66214" lon="1.72396">
        <ele>135.2</ele>
        <time>2012-04-19T09:41:08Z</time>
      </trkpt>
      <trkpt lat="48.66214" lon="1.72398">
        <ele>134.72</ele>
        <time>2012-04-19T09:41:09Z</time>
      </trkpt>
      <trkpt lat="48.66215" lon="1.72402">
        <ele>133.76</ele>
        <time>2012-04-19T09:41:11Z</time>
      </trkpt>
      <trkpt lat="48.6622" lon="1.72438">
        <ele>134.24</ele>
        <time>2012-04-19T09:41:27Z</time>
      </trkpt>
      <trkpt lat="48.66222" lon="1.72465">
        <ele>136.16</ele>
        <time>2012-04-19T09:41:41Z</time>
      </trkpt>
      <trkpt lat="48.66227" lon="1.72489">
        <ele>136.64</ele>
        <time>2012-04-19T09:41:56Z</time>
      </trkpt>
      <trkpt lat="48.66232" lon="1.72504">
        <ele>135.2</ele>
        <time>2012-04-19T09:42:07Z</time>
      </trkpt>
      <trkpt lat="48.66235" lon="1.72514">
        <ele>135.68</ele>
        <time>2012-04-19T09:42:13Z</time>
      </trkpt>
      <trkpt lat="48.6624" lon="1.72522">
        <ele>136.64</ele>
        <time>2012-04-19T09:42:27Z</time>
      </trkpt>
      <trkpt lat="48.66248" lon="1.72542">
        <ele>138.57</ele>
        <time>2012-04-19T09:42:40Z</time>
      </trkpt>
      <trkpt lat="48.66253" lon="1.72563">
        <ele>140.01</ele>
        <time>2012-04-19T09:42:54Z</time>
      </trkpt>
      <trkpt lat="48.6626" lon="1.72579">
        <ele>141.45</ele>
        <time>2012-04-19T09:43:07Z</time>
      </trkpt>
      <trkpt lat="48.66264" lon="1.72588">
        <ele>141.93</ele>
        <time>2012-04-19T09:43:14Z</time>
      </trkpt>
      <trkpt lat="48.66268" lon="1.72599">
        <ele>140.97</ele>
        <time>2012-04-19T09:43:20Z</time>
      </trkpt>
      <trkpt lat="48.66271" lon="1.72612">
        <ele>140.49</ele>
        <time>2012-04-19T09:43:28Z</time>
      </trkpt>
      <trkpt lat="48.66275" lon="1.72628">
        <ele>142.41</ele>
        <time>2012-04-19T09:43:35Z</time>
      </trkpt>
      <trkpt lat="48.66279" lon="1.72635">
        <ele>143.37</ele>
        <time>2012-04-19T09:43:39Z</time>
      </trkpt>
      <trkpt lat="48.66286" lon="1.7267">
        <ele>150.1</ele>
        <time>2012-04-19T09:43:56Z</time>
      </trkpt>
      <trkpt lat="48.66289" lon="1.72677">
        <ele>150.58</ele>
        <time>2012-04-19T09:44:02Z</time>
      </trkpt>
      <trkpt lat="48.66299" lon="1.72699">
        <ele>149.14</ele>
        <time>2012-04-19T09:44:18Z</time>
      </trkpt>
      <trkpt lat="48.663" lon="1.72702">
        <ele>150.58</ele>
        <time>2012-04-19T09:44:30Z</time>
      </trkpt>
      <trkpt lat="48.66308" lon="1.72718">
        <ele>151.06</ele>
        <time>2012-04-19T09:44:42Z</time>
      </trkpt>
      <trkpt lat="48.66312" lon="1.72729">
        <ele>151.54</ele>
        <time>2012-04-19T09:44:53Z</time>
      </trkpt>
      <trkpt lat="48.66319" lon="1.72752">
        <ele>148.66</ele>
        <time>2012-04-19T09:45:06Z</time>
      </trkpt>
      <trkpt lat="48.66326" lon="1.72766">
        <ele>145.3</ele>
        <time>2012-04-19T09:45:17Z</time>
      </trkpt>
      <trkpt lat="48.66326" lon="1.72781">
        <ele>145.3</ele>
        <time>2012-04-19T09:45:22Z</time>
      </trkpt>
      <trkpt lat="48.66332" lon="1.72805">
        <ele>146.26</ele>
        <time>2012-04-19T09:45:35Z</time>
      </trkpt>
      <trkpt lat="48.66339" lon="1.72829">
        <ele>141.93</ele>
        <time>2012-04-19T09:45:48Z</time>
      </trkpt>
      <trkpt lat="48.66344" lon="1.72847">
        <ele>138.57</ele>
        <time>2012-04-19T09:45:59Z</time>
      </trkpt>
      <trkpt lat="48.66351" lon="1.72869">
        <ele>136.64</ele>
        <time>2012-04-19T09:46:14Z</time>
      </trkpt>
      <trkpt lat="48.66361" lon="1.72896">
        <ele>136.16</ele>
        <time>2012-04-19T09:46:28Z</time>
      </trkpt>
      <trkpt lat="48.6637" lon="1.72918">
        <ele>138.09</ele>
        <time>2012-04-19T09:46:42Z</time>
      </trkpt>
      <trkpt lat="48.6637" lon="1.7292">
        <ele>139.05</ele>
        <time>2012-04-19T09:46:43Z</time>
      </trkpt>
      <trkpt lat="48.66371" lon="1.72927">
        <ele>140.97</ele>
        <time>2012-04-19T09:46:47Z</time>
      </trkpt>
      <trkpt lat="48.66374" lon="1.72935">
        <ele>141.45</ele>
        <time>2012-04-19T09:46:53Z</time>
      </trkpt>
      <trkpt lat="48.66381" lon="1.72951">
        <ele>140.01</ele>
        <time>2012-04-19T09:47:02Z</time>
      </trkpt>
      <trkpt lat="48.6639" lon="1.72965">
        <ele>135.68</ele>
        <time>2012-04-19T09:47:15Z</time>
      </trkpt>
      <trkpt lat="48.66397" lon="1.72985">
        <ele>134.24</ele>
        <time>2012-04-19T09:47:28Z</time>
      </trkpt>
      <trkpt lat="48.66405" lon="1.73007">
        <ele>137.13</ele>
        <time>2012-04-19T09:47:42Z</time>
      </trkpt>
      <trkpt lat="48.66414" lon="1.7303">
        <ele>140.01</ele>
        <time>2012-04-19T09:47:57Z</time>
      </trkpt>
      <trkpt lat="48.6642" lon="1.73051">
        <ele>142.89</ele>
        <time>2012-04-19T09:48:11Z</time>
      </trkpt>
      <trkpt lat="48.66428" lon="1.73072">
        <ele>145.3</ele>
        <time>2012-04-19T09:48:26Z</time>
      </trkpt>
      <trkpt lat="48.66435" lon="1.73094">
        <ele>146.74</ele>
        <time>2012-04-19T09:48:41Z</time>
      </trkpt>
      <trkpt lat="48.66438" lon="1.73101">
        <ele>146.74</ele>
        <time>2012-04-19T09:48:52Z</time>
      </trkpt>
      <trkpt lat="48.66443" lon="1.73114">
        <ele>147.7</ele>
        <time>2012-04-19T09:49:04Z</time>
      </trkpt>
      <trkpt lat="48.6645" lon="1.73133">
        <ele>146.74</ele>
        <time>2012-04-19T09:49:16Z</time>
      </trkpt>
      <trkpt lat="48.66452" lon="1.73139">
        <ele>145.3</ele>
        <time>2012-04-19T09:49:20Z</time>
      </trkpt>
      <trkpt lat="48.66457" lon="1.73146">
        <ele>142.89</ele>
        <time>2012-04-19T09:49:28Z</time>
      </trkpt>
      <trkpt lat="48.66462" lon="1.73167">
        <ele>140.01</ele>
        <time>2012-04-19T09:49:40Z</time>
      </trkpt>
      <trkpt lat="48.66464" lon="1.73175">
        <ele>139.53</ele>
        <time>2012-04-19T09:49:44Z</time>
      </trkpt>
      <trkpt lat="48.66465" lon="1.73179">
        <ele>139.05</ele>
        <time>2012-04-19T09:49:46Z</time>
      </trkpt>
      <trkpt lat="48.66471" lon="1.73209">
        <ele>135.68</ele>
        <time>2012-04-19T09:50:01Z</time>
      </trkpt>
      <trkpt lat="48.66474" lon="1.73219">
        <ele>133.28</ele>
        <time>2012-04-19T09:50:06Z</time>
      </trkpt>
      <trkpt lat="48.6648" lon="1.73233">
        <ele>132.32</ele>
        <time>2012-04-19T09:50:15Z</time>
      </trkpt>
      <trkpt lat="48.66486" lon="1.73246">
        <ele>134.72</ele>
        <time>2012-04-19T09:50:23Z</time>
      </trkpt>
      <trkpt lat="48.66491" lon="1.73259">
        <ele>136.16</ele>
        <time>2012-04-19T09:50:31Z</time>
      </trkpt>
      <trkpt lat="48.66493" lon="1.73263">
        <ele>136.16</ele>
        <time>2012-04-19T09:50:34Z</time>
      </trkpt>
      <trkpt lat="48.66496" lon="1.73272">
        <ele>137.13</ele>
        <time>2012-04-19T09:50:39Z</time>
      </trkpt>
      <trkpt lat="48.66505" lon="1.73297">
        <ele>140.01</ele>
        <time>2012-04-19T09:50:56Z</time>
      </trkpt>
      <trkpt lat="48.66512" lon="1.73321">
        <ele>139.53</ele>
        <time>2012-04-19T09:51:11Z</time>
      </trkpt>
      <trkpt lat="48.66517" lon="1.73335">
        <ele>140.01</ele>
        <time>2012-04-19T09:51:25Z</time>
      </trkpt>
      <trkpt lat="48.66517" lon="1.73337">
        <ele>140.97</ele>
        <time>2012-04-19T09:51:40Z</time>
      </trkpt>
      <trkpt lat="48.66517" lon="1.73337">
        <ele>140.97</ele>
        <time>2012-04-19T09:52:06Z</time>
      </trkpt>
      <trkpt lat="48.66517" lon="1.73337">
        <ele>140.97</ele>
        <time>2012-04-19T09:52:31Z</time>
      </trkpt>
      <trkpt lat="48.66517" lon="1.73337">
        <ele>140.97</ele>
        <time>2012-04-19T09:52:55Z</time>
      </trkpt>
      <trkpt lat="48.66517" lon="1.73337">
        <ele>140.97</ele>
        <time>2012-04-19T09:53:30Z</time>
      </trkpt>
      <trkpt lat="48.66517" lon="1.73337">
        <ele>140.97</ele>
        <time>2012-04-19T09:53:52Z</time>
      </trkpt>
      <trkpt lat="48.66522" lon="1.73348">
        <ele>140.49</ele>
        <time>2012-04-19T09:54:12Z</time>
      </trkpt>
      <trkpt lat="48.66527" lon="1.73365">
        <ele>140.01</ele>
        <time>2012-04-19T09:54:26Z</time>
      </trkpt>
      <trkpt lat="48.66533" lon="1.73382">
        <ele>138.09</ele>
        <time>2012-04-19T09:54:42Z</time>
      </trkpt>
      <trkpt lat="48.6654" lon="1.73397">
        <ele>136.16</ele>
        <time>2012-04-19T09:54:52Z</time>
      </trkpt>
      <trkpt lat="48.6655" lon="1.73425">
        <ele>134.72</ele>
        <time>2012-04-19T09:55:08Z</time>
      </trkpt>
      <trkpt lat="48.66556" lon="1.7345">
        <ele>133.76</ele>
        <time>2012-04-19T09:55:21Z</time>
      </trkpt>
      <trkpt lat="48.66562" lon="1.73469">
        <ele>134.24</ele>
        <time>2012-04-19T09:55:32Z</time>
      </trkpt>
      <trkpt lat="48.66564" lon="1.73471">
        <ele>134.24</ele>
        <time>2012-04-19T09:55:45Z</time>
      </trkpt>
      <trkpt lat="48.66564" lon="1.73471">
        <ele>134.24</ele>
        <time>2012-04-19T09:56:16Z</time>
      </trkpt>
      <trkpt lat="48.66564" lon="1.73471">
        <ele>134.24</ele>
        <time>2012-04-19T09:56:43Z</time>
      </trkpt>
      <trkpt lat="48.66564" lon="1.73471">
        <ele>134.24</ele>
        <time>2012-04-19T09:57:17Z</time>
      </trkpt>
      <trkpt lat="48.66564" lon="1.73472">
        <ele>134.24</ele>
        <time>2012-04-19T09:57:49Z</time>
      </trkpt>
      <trkpt lat="48.66567" lon="1.73484">
        <ele>135.2</ele>
        <time>2012-04-19T09:57:57Z</time>
      </trkpt>
      <trkpt lat="48.66573" lon="1.73501">
        <ele>136.16</ele>
        <time>2012-04-19T09:58:07Z</time>
      </trkpt>
      <trkpt lat="48.66585" lon="1.73542">
        <ele>135.2</ele>
        <time>2012-04-19T09:58:33Z</time>
      </trkpt>
      <trkpt lat="48.66591" lon="1.73557">
        <ele>131.36</ele>
        <time>2012-04-19T09:58:44Z</time>
      </trkpt>
      <trkpt lat="48.66593" lon="1.73563">
        <ele>131.36</ele>
        <time>2012-04-19T09:58:48Z</time>
      </trkpt>
      <trkpt lat="48.66597" lon="1.73584">
        <ele>131.36</ele>
        <time>2012-04-19T09:59:02Z</time>
      </trkpt>
      <trkpt lat="48.66608" lon="1.73599">
        <ele>132.8</ele>
        <time>2012-04-19T09:59:15Z</time>
      </trkpt>
      <trkpt lat="48.66611" lon="1.73599">
        <ele>133.28</ele>
        <time>2012-04-19T09:59:31Z</time>
      </trkpt>
      <trkpt lat="48.66623" lon="1.73597">
        <ele>134.72</ele>
        <time>2012-04-19T09:59:45Z</time>
      </trkpt>
      <trkpt lat="48.66637" lon="1.73591">
        <ele>137.13</ele>
        <time>2012-04-19T10:00:01Z</time>
      </trkpt>
      <trkpt lat="48.66647" lon="1.73588">
        <ele>140.97</ele>
        <time>2012-04-19T10:00:16Z</time>
      </trkpt>
      <trkpt lat="48.66657" lon="1.736">
        <ele>145.78</ele>
        <time>2012-04-19T10:00:31Z</time>
      </trkpt>
      <trkpt lat="48.66662" lon="1.73615">
        <ele>146.74</ele>
        <time>2012-04-19T10:00:45Z</time>
      </trkpt>
      <trkpt lat="48.66665" lon="1.73632">
        <ele>149.62</ele>
        <time>2012-04-19T10:00:58Z</time>
      </trkpt>
      <trkpt lat="48.66669" lon="1.73646">
        <ele>149.14</ele>
        <time>2012-04-19T10:01:10Z</time>
      </trkpt>
      <trkpt lat="48.66675" lon="1.73663">
        <ele>150.58</ele>
        <time>2012-04-19T10:01:23Z</time>
      </trkpt>
      <trkpt lat="48.66679" lon="1.73678">
        <ele>150.1</ele>
        <time>2012-04-19T10:01:37Z</time>
      </trkpt>
      <trkpt lat="48.66682" lon="1.73699">
        <ele>154.43</ele>
        <time>2012-04-19T10:01:51Z</time>
      </trkpt>
      <trkpt lat="48.66687" lon="1.73712">
        <ele>158.27</ele>
        <time>2012-04-19T10:02:05Z</time>
      </trkpt>
      <trkpt lat="48.66696" lon="1.73725">
        <ele>159.24</ele>
        <time>2012-04-19T10:02:19Z</time>
      </trkpt>
      <trkpt lat="48.66714" lon="1.73735">
        <ele>158.75</ele>
        <time>2012-04-19T10:02:34Z</time>
      </trkpt>
      <trkpt lat="48.66716" lon="1.73736">
        <ele>159.72</ele>
        <time>2012-04-19T10:02:36Z</time>
      </trkpt>
      <trkpt lat="48.66737" lon="1.73748">
        <ele>160.68</ele>
        <time>2012-04-19T10:02:51Z</time>
      </trkpt>
      <trkpt lat="48.66755" lon="1.73758">
        <ele>161.64</ele>
        <time>2012-04-19T10:03:06Z</time>
      </trkpt>
      <trkpt lat="48.66772" lon="1.73764">
        <ele>164.52</ele>
        <time>2012-04-19T10:03:19Z</time>
      </trkpt>
      <trkpt lat="48.66784" lon="1.73771">
        <ele>164.52</ele>
        <time>2012-04-19T10:03:32Z</time>
      </trkpt>
      <trkpt lat="48.66791" lon="1.73776">
        <ele>164.52</ele>
        <time>2012-04-19T10:03:39Z</time>
      </trkpt>
      <trkpt lat="48.66804" lon="1.73764">
        <ele>162.12</ele>
        <time>2012-04-19T10:03:52Z</time>
      </trkpt>
      <trkpt lat="48.66807" lon="1.73758">
        <ele>160.2</ele>
        <time>2012-04-19T10:03:56Z</time>
      </trkpt>
      <trkpt lat="48.66811" lon="1.73755">
        <ele>159.24</ele>
        <time>2012-04-19T10:04:01Z</time>
      </trkpt>
      <trkpt lat="48.66824" lon="1.73737">
        <ele>157.31</ele>
        <time>2012-04-19T10:04:15Z</time>
      </trkpt>
      <trkpt lat="48.66833" lon="1.73722">
        <ele>152.51</ele>
        <time>2012-04-19T10:04:30Z</time>
      </trkpt>
      <trkpt lat="48.6685" lon="1.73704">
        <ele>152.03</ele>
        <time>2012-04-19T10:04:44Z</time>
      </trkpt>
      <trkpt lat="48.66862" lon="1.73689">
        <ele>146.74</ele>
        <time>2012-04-19T10:05:00Z</time>
      </trkpt>
      <trkpt lat="48.66879" lon="1.73669">
        <ele>147.22</ele>
        <time>2012-04-19T10:05:15Z</time>
      </trkpt>
      <trkpt lat="48.66891" lon="1.73652">
        <ele>149.62</ele>
        <time>2012-04-19T10:05:28Z</time>
      </trkpt>
      <trkpt lat="48.66907" lon="1.73637">
        <ele>155.39</ele>
        <time>2012-04-19T10:05:41Z</time>
      </trkpt>
      <trkpt lat="48.6692" lon="1.73622">
        <ele>156.35</ele>
        <time>2012-04-19T10:05:53Z</time>
      </trkpt>
      <trkpt lat="48.66929" lon="1.73609">
        <ele>154.91</ele>
        <time>2012-04-19T10:06:04Z</time>
      </trkpt>
      <trkpt lat="48.66945" lon="1.73589">
        <ele>153.95</ele>
        <time>2012-04-19T10:06:19Z</time>
      </trkpt>
      <trkpt lat="48.66961" lon="1.73569">
        <ele>154.43</ele>
        <time>2012-04-19T10:06:34Z</time>
      </trkpt>
      <trkpt lat="48.66974" lon="1.7356">
        <ele>154.91</ele>
        <time>2012-04-19T10:06:49Z</time>
      </trkpt>
      <trkpt lat="48.66977" lon="1.73557">
        <ele>155.39</ele>
        <time>2012-04-19T10:06:52Z</time>
      </trkpt>
      <trkpt lat="48.66989" lon="1.73535">
        <ele>155.87</ele>
        <time>2012-04-19T10:07:07Z</time>
      </trkpt>
      <trkpt lat="48.66996" lon="1.73526">
        <ele>153.95</ele>
        <time>2012-04-19T10:07:16Z</time>
      </trkpt>
      <trkpt lat="48.6701" lon="1.73509">
        <ele>156.35</ele>
        <time>2012-04-19T10:07:32Z</time>
      </trkpt>
      <trkpt lat="48.67013" lon="1.73506">
        <ele>155.87</ele>
        <time>2012-04-19T10:07:46Z</time>
      </trkpt>
      <trkpt lat="48.67026" lon="1.73513">
        <ele>157.31</ele>
        <time>2012-04-19T10:07:59Z</time>
      </trkpt>
      <trkpt lat="48.67032" lon="1.73507">
        <ele>157.31</ele>
        <time>2012-04-19T10:08:11Z</time>
      </trkpt>
      <trkpt lat="48.6704" lon="1.73494">
        <ele>155.39</ele>
        <time>2012-04-19T10:08:24Z</time>
      </trkpt>
      <trkpt lat="48.67043" lon="1.7348">
        <ele>155.87</ele>
        <time>2012-04-19T10:08:34Z</time>
      </trkpt>
      <trkpt lat="48.67045" lon="1.7347">
        <ele>157.31</ele>
        <time>2012-04-19T10:08:39Z</time>
      </trkpt>
      <trkpt lat="48.67048" lon="1.73457">
        <ele>159.72</ele>
        <time>2012-04-19T10:08:47Z</time>
      </trkpt>
      <trkpt lat="48.67051" lon="1.73435">
        <ele>159.24</ele>
        <time>2012-04-19T10:09:01Z</time>
      </trkpt>
      <trkpt lat="48.67052" lon="1.73425">
        <ele>159.24</ele>
        <time>2012-04-19T10:09:14Z</time>
      </trkpt>
      <trkpt lat="48.67052" lon="1.73425">
        <ele>159.24</ele>
        <time>2012-04-19T10:09:31Z</time>
      </trkpt>
      <trkpt lat="48.67053" lon="1.73425">
        <ele>159.24</ele>
        <time>2012-04-19T10:10:00Z</time>
      </trkpt>
      <trkpt lat="48.67053" lon="1.73427">
        <ele>158.75</ele>
        <time>2012-04-19T10:10:15Z</time>
      </trkpt>
      <trkpt lat="48.67055" lon="1.73426">
        <ele>158.75</ele>
        <time>2012-04-19T10:10:18Z</time>
      </trkpt>
      <trkpt lat="48.67058" lon="1.73423">
        <ele>158.75</ele>
        <time>2012-04-19T10:10:22Z</time>
      </trkpt>
      <trkpt lat="48.67068" lon="1.73413">
        <ele>159.24</ele>
        <time>2012-04-19T10:10:33Z</time>
      </trkpt>
      <trkpt lat="48.67071" lon="1.73402">
        <ele>159.24</ele>
        <time>2012-04-19T10:10:39Z</time>
      </trkpt>
      <trkpt lat="48.6707" lon="1.73397">
        <ele>159.24</ele>
        <time>2012-04-19T10:10:50Z</time>
      </trkpt>
      <trkpt lat="48.67071" lon="1.73397">
        <ele>159.24</ele>
        <time>2012-04-19T10:10:51Z</time>
      </trkpt>
      <trkpt lat="48.67084" lon="1.734">
        <ele>157.31</ele>
        <time>2012-04-19T10:11:06Z</time>
      </trkpt>
      <trkpt lat="48.67094" lon="1.73408">
        <ele>157.79</ele>
        <time>2012-04-19T10:11:18Z</time>
      </trkpt>
      <trkpt lat="48.67095" lon="1.73408">
        <ele>157.79</ele>
        <time>2012-04-19T10:11:46Z</time>
      </trkpt>
      <trkpt lat="48.67101" lon="1.73413">
        <ele>158.27</ele>
        <time>2012-04-19T10:11:59Z</time>
      </trkpt>
      <trkpt lat="48.67106" lon="1.73421">
        <ele>158.75</ele>
        <time>2012-04-19T10:12:14Z</time>
      </trkpt>
      <trkpt lat="48.67122" lon="1.73444">
        <ele>157.31</ele>
        <time>2012-04-19T10:12:28Z</time>
      </trkpt>
      <trkpt lat="48.67127" lon="1.73467">
        <ele>153.95</ele>
        <time>2012-04-19T10:12:42Z</time>
      </trkpt>
      <trkpt lat="48.67136" lon="1.73492">
        <ele>153.47</ele>
        <time>2012-04-19T10:12:57Z</time>
      </trkpt>
      <trkpt lat="48.67147" lon="1.73519">
        <ele>150.58</ele>
        <time>2012-04-19T10:13:14Z</time>
      </trkpt>
      <trkpt lat="48.67148" lon="1.7352">
        <ele>150.58</ele>
        <time>2012-04-19T10:13:15Z</time>
      </trkpt>
      <trkpt lat="48.67157" lon="1.73527">
        <ele>151.06</ele>
        <time>2012-04-19T10:13:27Z</time>
      </trkpt>
      <trkpt lat="48.67158" lon="1.73528">
        <ele>151.54</ele>
        <time>2012-04-19T10:13:38Z</time>
      </trkpt>
      <trkpt lat="48.67159" lon="1.73529">
        <ele>151.54</ele>
        <time>2012-04-19T10:13:54Z</time>
      </trkpt>
      <trkpt lat="48.67164" lon="1.73534">
        <ele>150.58</ele>
        <time>2012-04-19T10:14:12Z</time>
      </trkpt>
      <trkpt lat="48.67171" lon="1.73535">
        <ele>151.06</ele>
        <time>2012-04-19T10:14:27Z</time>
      </trkpt>
      <trkpt lat="48.67172" lon="1.73536">
        <ele>150.1</ele>
        <time>2012-04-19T10:14:41Z</time>
      </trkpt>
      <trkpt lat="48.67181" lon="1.73549">
        <ele>148.18</ele>
        <time>2012-04-19T10:14:53Z</time>
      </trkpt>
      <trkpt lat="48.67189" lon="1.73569">
        <ele>149.14</ele>
        <time>2012-04-19T10:15:05Z</time>
      </trkpt>
      <trkpt lat="48.6719" lon="1.7357">
        <ele>149.14</ele>
        <time>2012-04-19T10:15:22Z</time>
      </trkpt>
      <trkpt lat="48.6719" lon="1.7357">
        <ele>149.14</ele>
        <time>2012-04-19T10:15:46Z</time>
      </trkpt>
      <trkpt lat="48.6719" lon="1.73571">
        <ele>149.14</ele>
        <time>2012-04-19T10:16:17Z</time>
      </trkpt>
      <trkpt lat="48.67191" lon="1.73575">
        <ele>148.66</ele>
        <time>2012-04-19T10:16:34Z</time>
      </trkpt>
      <trkpt lat="48.67192" lon="1.73578">
        <ele>149.14</ele>
        <time>2012-04-19T10:17:05Z</time>
      </trkpt>
      <trkpt lat="48.67193" lon="1.73585">
        <ele>149.14</ele>
        <time>2012-04-19T10:17:08Z</time>
      </trkpt>
      <trkpt lat="48.67194" lon="1.73602">
        <ele>149.62</ele>
        <time>2012-04-19T10:17:20Z</time>
      </trkpt>
      <trkpt lat="48.67194" lon="1.73601">
        <ele>149.62</ele>
        <time>2012-04-19T10:17:43Z</time>
      </trkpt>
      <trkpt lat="48.67196" lon="1.73608">
        <ele>149.14</ele>
        <time>2012-04-19T10:18:09Z</time>
      </trkpt>
      <trkpt lat="48.67197" lon="1.73632">
        <ele>148.66</ele>
        <time>2012-04-19T10:18:24Z</time>
      </trkpt>
      <trkpt lat="48.67197" lon="1.73632">
        <ele>148.66</ele>
        <time>2012-04-19T10:18:44Z</time>
      </trkpt>
      <trkpt lat="48.67202" lon="1.73644">
        <ele>147.7</ele>
        <time>2012-04-19T10:19:00Z</time>
      </trkpt>
      <trkpt lat="48.67212" lon="1.73672">
        <ele>142.89</ele>
        <time>2012-04-19T10:19:15Z</time>
      </trkpt>
      <trkpt lat="48.67215" lon="1.73683">
        <ele>142.41</ele>
        <time>2012-04-19T10:19:28Z</time>
      </trkpt>
      <trkpt lat="48.67214" lon="1.73703">
        <ele>141.93</ele>
        <time>2012-04-19T10:19:40Z</time>
      </trkpt>
      <trkpt lat="48.67212" lon="1.73733">
        <ele>140.97</ele>
        <time>2012-04-19T10:19:56Z</time>
      </trkpt>
      <trkpt lat="48.67206" lon="1.73759">
        <ele>138.09</ele>
        <time>2012-04-19T10:20:10Z</time>
      </trkpt>
      <trkpt lat="48.67203" lon="1.73785">
        <ele>137.61</ele>
        <time>2012-04-19T10:20:25Z</time>
      </trkpt>
      <trkpt lat="48.67203" lon="1.73787">
        <ele>137.61</ele>
        <time>2012-04-19T10:20:38Z</time>
      </trkpt>
      <trkpt lat="48.67215" lon="1.73792">
        <ele>134.24</ele>
        <time>2012-04-19T10:20:53Z</time>
      </trkpt>
      <trkpt lat="48.67227" lon="1.73795">
        <ele>133.28</ele>
        <time>2012-04-19T10:21:07Z</time>
      </trkpt>
      <trkpt lat="48.67227" lon="1.73794">
        <ele>133.28</ele>
        <time>2012-04-19T10:21:16Z</time>
      </trkpt>
      <trkpt lat="48.67243" lon="1.73787">
        <ele>132.32</ele>
        <time>2012-04-19T10:21:29Z</time>
      </trkpt>
      <trkpt lat="48.67255" lon="1.73788">
        <ele>131.84</ele>
        <time>2012-04-19T10:21:45Z</time>
      </trkpt>
      <trkpt lat="48.67257" lon="1.73791">
        <ele>133.28</ele>
        <time>2012-04-19T10:21:54Z</time>
      </trkpt>
      <trkpt lat="48.67266" lon="1.73809">
        <ele>130.88</ele>
        <time>2012-04-19T10:22:07Z</time>
      </trkpt>
      <trkpt lat="48.67268" lon="1.73812">
        <ele>130.4</ele>
        <time>2012-04-19T10:22:09Z</time>
      </trkpt>
      <trkpt lat="48.67275" lon="1.73813">
        <ele>129.92</ele>
        <time>2012-04-19T10:22:14Z</time>
      </trkpt>
      <trkpt lat="48.67279" lon="1.73804">
        <ele>131.36</ele>
        <time>2012-04-19T10:22:20Z</time>
      </trkpt>
      <trkpt lat="48.67287" lon="1.73777">
        <ele>130.88</ele>
        <time>2012-04-19T10:22:36Z</time>
      </trkpt>
      <trkpt lat="48.67295" lon="1.73747">
        <ele>131.84</ele>
        <time>2012-04-19T10:22:51Z</time>
      </trkpt>
      <trkpt lat="48.67305" lon="1.73714">
        <ele>127.51</ele>
        <time>2012-04-19T10:23:08Z</time>
      </trkpt>
      <trkpt lat="48.67309" lon="1.73708">
        <ele>125.59</ele>
        <time>2012-04-19T10:23:23Z</time>
      </trkpt>
      <trkpt lat="48.67311" lon="1.73705">
        <ele>126.55</ele>
        <time>2012-04-19T10:23:39Z</time>
      </trkpt>
      <trkpt lat="48.67313" lon="1.73696">
        <ele>127.99</ele>
        <time>2012-04-19T10:23:54Z</time>
      </trkpt>
      <trkpt lat="48.67322" lon="1.73669">
        <ele>130.88</ele>
        <time>2012-04-19T10:24:10Z</time>
      </trkpt>
      <trkpt lat="48.67327" lon="1.73646">
        <ele>133.76</ele>
        <time>2012-04-19T10:24:24Z</time>
      </trkpt>
      <trkpt lat="48.67331" lon="1.73626">
        <ele>132.8</ele>
        <time>2012-04-19T10:24:39Z</time>
      </trkpt>
      <trkpt lat="48.67334" lon="1.73598">
        <ele>136.16</ele>
        <time>2012-04-19T10:24:54Z</time>
      </trkpt>
      <trkpt lat="48.67336" lon="1.7359">
        <ele>136.64</ele>
        <time>2012-04-19T10:25:07Z</time>
      </trkpt>
      <trkpt lat="48.67336" lon="1.7359">
        <ele>136.64</ele>
        <time>2012-04-19T10:25:26Z</time>
      </trkpt>
      <trkpt lat="48.67336" lon="1.7359">
        <ele>136.16</ele>
        <time>2012-04-19T10:25:52Z</time>
      </trkpt>
      <trkpt lat="48.67336" lon="1.7359">
        <ele>136.16</ele>
        <time>2012-04-19T10:26:15Z</time>
      </trkpt>
      <trkpt lat="48.67337" lon="1.73583">
        <ele>136.16</ele>
        <time>2012-04-19T10:26:37Z</time>
      </trkpt>
      <trkpt lat="48.67349" lon="1.73564">
        <ele>137.61</ele>
        <time>2012-04-19T10:26:52Z</time>
      </trkpt>
      <trkpt lat="48.67357" lon="1.73554">
        <ele>138.09</ele>
        <time>2012-04-19T10:27:08Z</time>
      </trkpt>
      <trkpt lat="48.67358" lon="1.73551">
        <ele>138.57</ele>
        <time>2012-04-19T10:27:22Z</time>
      </trkpt>
      <trkpt lat="48.67357" lon="1.7355">
        <ele>138.57</ele>
        <time>2012-04-19T10:27:34Z</time>
      </trkpt>
      <trkpt lat="48.67354" lon="1.73536">
        <ele>140.49</ele>
        <time>2012-04-19T10:27:47Z</time>
      </trkpt>
      <trkpt lat="48.67355" lon="1.73512">
        <ele>141.93</ele>
        <time>2012-04-19T10:28:00Z</time>
      </trkpt>
      <trkpt lat="48.67356" lon="1.73502">
        <ele>142.89</ele>
        <time>2012-04-19T10:28:18Z</time>
      </trkpt>
      <trkpt lat="48.67358" lon="1.73491">
        <ele>145.78</ele>
        <time>2012-04-19T10:28:36Z</time>
      </trkpt>
      <trkpt lat="48.67358" lon="1.73491">
        <ele>145.78</ele>
        <time>2012-04-19T10:28:50Z</time>
      </trkpt>
      <trkpt lat="48.67356" lon="1.73483">
        <ele>145.78</ele>
        <time>2012-04-19T10:28:57Z</time>
      </trkpt>
      <trkpt lat="48.67354" lon="1.7346">
        <ele>149.14</ele>
        <time>2012-04-19T10:29:06Z</time>
      </trkpt>
      <trkpt lat="48.67354" lon="1.73454">
        <ele>148.18</ele>
        <time>2012-04-19T10:29:09Z</time>
      </trkpt>
      <trkpt lat="48.67356" lon="1.73438">
        <ele>151.54</ele>
        <time>2012-04-19T10:29:21Z</time>
      </trkpt>
      <trkpt lat="48.67361" lon="1.73426">
        <ele>152.99</ele>
        <time>2012-04-19T10:29:28Z</time>
      </trkpt>
      <trkpt lat="48.67362" lon="1.73417">
        <ele>153.47</ele>
        <time>2012-04-19T10:29:33Z</time>
      </trkpt>
      <trkpt lat="48.67367" lon="1.73402">
        <ele>154.43</ele>
        <time>2012-04-19T10:29:45Z</time>
      </trkpt>
      <trkpt lat="48.6738" lon="1.73396">
        <ele>152.03</ele>
        <time>2012-04-19T10:29:58Z</time>
      </trkpt>
      <trkpt lat="48.67382" lon="1.73396">
        <ele>151.54</ele>
        <time>2012-04-19T10:29:59Z</time>
      </trkpt>
      <trkpt lat="48.67403" lon="1.73384">
        <ele>150.58</ele>
        <time>2012-04-19T10:30:14Z</time>
      </trkpt>
      <trkpt lat="48.67416" lon="1.73371">
        <ele>149.14</ele>
        <time>2012-04-19T10:30:28Z</time>
      </trkpt>
      <trkpt lat="48.67422" lon="1.73363">
        <ele>149.14</ele>
        <time>2012-04-19T10:30:34Z</time>
      </trkpt>
      <trkpt lat="48.67432" lon="1.73348">
        <ele>151.06</ele>
        <time>2012-04-19T10:30:41Z</time>
      </trkpt>
      <trkpt lat="48.67434" lon="1.73344">
        <ele>151.06</ele>
        <time>2012-04-19T10:30:43Z</time>
      </trkpt>
      <trkpt lat="48.67443" lon="1.73332">
        <ele>151.06</ele>
        <time>2012-04-19T10:30:57Z</time>
      </trkpt>
      <trkpt lat="48.67455" lon="1.73312">
        <ele>151.06</ele>
        <time>2012-04-19T10:31:12Z</time>
      </trkpt>
      <trkpt lat="48.67468" lon="1.73291">
        <ele>148.18</ele>
        <time>2012-04-19T10:31:27Z</time>
      </trkpt>
      <trkpt lat="48.67478" lon="1.73268">
        <ele>146.26</ele>
        <time>2012-04-19T10:31:41Z</time>
      </trkpt>
      <trkpt lat="48.67489" lon="1.73245">
        <ele>146.74</ele>
        <time>2012-04-19T10:31:56Z</time>
      </trkpt>
      <trkpt lat="48.67493" lon="1.73239">
        <ele>147.22</ele>
        <time>2012-04-19T10:32:00Z</time>
      </trkpt>
      <trkpt lat="48.67506" lon="1.73244">
        <ele>151.54</ele>
        <time>2012-04-19T10:32:15Z</time>
      </trkpt>
      <trkpt lat="48.67517" lon="1.73258">
        <ele>150.1</ele>
        <time>2012-04-19T10:32:25Z</time>
      </trkpt>
      <trkpt lat="48.67527" lon="1.73278">
        <ele>143.37</ele>
        <time>2012-04-19T10:32:40Z</time>
      </trkpt>
      <trkpt lat="48.67547" lon="1.73299">
        <ele>142.41</ele>
        <time>2012-04-19T10:32:57Z</time>
      </trkpt>
      <trkpt lat="48.6757" lon="1.73317">
        <ele>145.3</ele>
        <time>2012-04-19T10:33:15Z</time>
      </trkpt>
      <trkpt lat="48.67596" lon="1.73321">
        <ele>160.68</ele>
        <time>2012-04-19T10:33:30Z</time>
      </trkpt>
      <trkpt lat="48.67611" lon="1.73322">
        <ele>161.16</ele>
        <time>2012-04-19T10:33:42Z</time>
      </trkpt>
      <trkpt lat="48.67632" lon="1.73325">
        <ele>160.2</ele>
        <time>2012-04-19T10:33:57Z</time>
      </trkpt>
      <trkpt lat="48.67655" lon="1.73329">
        <ele>159.72</ele>
        <time>2012-04-19T10:34:13Z</time>
      </trkpt>
      <trkpt lat="48.67674" lon="1.73331">
        <ele>159.72</ele>
        <time>2012-04-19T10:34:29Z</time>
      </trkpt>
      <trkpt lat="48.67677" lon="1.73331">
        <ele>159.72</ele>
        <time>2012-04-19T10:34:31Z</time>
      </trkpt>
      <trkpt lat="48.67692" lon="1.73336">
        <ele>158.75</ele>
        <time>2012-04-19T10:34:45Z</time>
      </trkpt>
      <trkpt lat="48.67707" lon="1.73338">
        <ele>162.6</ele>
        <time>2012-04-19T10:34:55Z</time>
      </trkpt>
      <trkpt lat="48.67728" lon="1.73345">
        <ele>162.6</ele>
        <time>2012-04-19T10:35:11Z</time>
      </trkpt>
      <trkpt lat="48.67728" lon="1.73345">
        <ele>162.6</ele>
        <time>2012-04-19T10:35:31Z</time>
      </trkpt>
      <trkpt lat="48.67728" lon="1.73345">
        <ele>162.6</ele>
        <time>2012-04-19T10:35:44Z</time>
      </trkpt>
      <trkpt lat="48.67729" lon="1.73345">
        <ele>162.6</ele>
        <time>2012-04-19T10:36:10Z</time>
      </trkpt>
      <trkpt lat="48.67732" lon="1.73346">
        <ele>162.6</ele>
        <time>2012-04-19T10:36:17Z</time>
      </trkpt>
      <trkpt lat="48.67732" lon="1.73353">
        <ele>161.64</ele>
        <time>2012-04-19T10:36:24Z</time>
      </trkpt>
      <trkpt lat="48.67735" lon="1.7337">
        <ele>162.12</ele>
        <time>2012-04-19T10:36:40Z</time>
      </trkpt>
      <trkpt lat="48.67736" lon="1.73378">
        <ele>163.08</ele>
        <time>2012-04-19T10:36:57Z</time>
      </trkpt>
      <trkpt lat="48.6774" lon="1.73411">
        <ele>165</ele>
        <time>2012-04-19T10:37:11Z</time>
      </trkpt>
      <trkpt lat="48.67744" lon="1.73434">
        <ele>167.41</ele>
        <time>2012-04-19T10:37:25Z</time>
      </trkpt>
      <trkpt lat="48.67744" lon="1.73435">
        <ele>167.41</ele>
        <time>2012-04-19T10:37:53Z</time>
      </trkpt>
      <trkpt lat="48.67743" lon="1.73425">
        <ele>165.96</ele>
        <time>2012-04-19T10:38:02Z</time>
      </trkpt>
      <trkpt lat="48.67743" lon="1.73405">
        <ele>164.52</ele>
        <time>2012-04-19T10:38:14Z</time>
      </trkpt>
      <trkpt lat="48.6774" lon="1.73397">
        <ele>164.52</ele>
        <time>2012-04-19T10:38:18Z</time>
      </trkpt>
      <trkpt lat="48.67739" lon="1.73391">
        <ele>165</ele>
        <time>2012-04-19T10:38:21Z</time>
      </trkpt>
      <trkpt lat="48.67734" lon="1.73356">
        <ele>167.41</ele>
        <time>2012-04-19T10:38:38Z</time>
      </trkpt>
      <trkpt lat="48.67732" lon="1.7335">
        <ele>167.89</ele>
        <time>2012-04-19T10:38:41Z</time>
      </trkpt>
      <trkpt lat="48.67732" lon="1.73338">
        <ele>168.37</ele>
        <time>2012-04-19T10:38:48Z</time>
      </trkpt>
      <trkpt lat="48.67742" lon="1.73354">
        <ele>167.41</ele>
        <time>2012-04-19T10:39:03Z</time>
      </trkpt>
      <trkpt lat="48.67755" lon="1.73366">
        <ele>168.37</ele>
        <time>2012-04-19T10:39:15Z</time>
      </trkpt>
      <trkpt lat="48.67769" lon="1.73377">
        <ele>167.89</ele>
        <time>2012-04-19T10:39:31Z</time>
      </trkpt>
      <trkpt lat="48.6778" lon="1.73389">
        <ele>167.41</ele>
        <time>2012-04-19T10:39:44Z</time>
      </trkpt>
      <trkpt lat="48.67782" lon="1.73392">
        <ele>165.96</ele>
        <time>2012-04-19T10:39:47Z</time>
      </trkpt>
      <trkpt lat="48.67796" lon="1.73406">
        <ele>164.52</ele>
        <time>2012-04-19T10:40:00Z</time>
      </trkpt>
      <trkpt lat="48.67812" lon="1.73417">
        <ele>166.45</ele>
        <time>2012-04-19T10:40:13Z</time>
      </trkpt>
      <trkpt lat="48.67828" lon="1.73432">
        <ele>168.37</ele>
        <time>2012-04-19T10:40:28Z</time>
      </trkpt>
      <trkpt lat="48.67846" lon="1.73448">
        <ele>170.29</ele>
        <time>2012-04-19T10:40:45Z</time>
      </trkpt>
      <trkpt lat="48.67863" lon="1.73463">
        <ele>173.17</ele>
        <time>2012-04-19T10:40:59Z</time>
      </trkpt>
      <trkpt lat="48.67878" lon="1.73476">
        <ele>173.66</ele>
        <time>2012-04-19T10:41:10Z</time>
      </trkpt>
      <trkpt lat="48.67891" lon="1.73495">
        <ele>170.77</ele>
        <time>2012-04-19T10:41:23Z</time>
      </trkpt>
      <trkpt lat="48.67893" lon="1.73499">
        <ele>169.81</ele>
        <time>2012-04-19T10:41:26Z</time>
      </trkpt>
      <trkpt lat="48.67907" lon="1.7352">
        <ele>169.81</ele>
        <time>2012-04-19T10:41:39Z</time>
      </trkpt>
      <trkpt lat="48.67919" lon="1.73536">
        <ele>169.81</ele>
        <time>2012-04-19T10:41:50Z</time>
      </trkpt>
      <trkpt lat="48.67922" lon="1.73541">
        <ele>170.29</ele>
        <time>2012-04-19T10:41:53Z</time>
      </trkpt>
      <trkpt lat="48.67936" lon="1.73567">
        <ele>172.21</ele>
        <time>2012-04-19T10:42:08Z</time>
      </trkpt>
      <trkpt lat="48.67941" lon="1.73571">
        <ele>171.73</ele>
        <time>2012-04-19T10:42:13Z</time>
      </trkpt>
      <trkpt lat="48.67956" lon="1.73592">
        <ele>169.33</ele>
        <time>2012-04-19T10:42:27Z</time>
      </trkpt>
      <trkpt lat="48.67965" lon="1.73607">
        <ele>169.33</ele>
        <time>2012-04-19T10:42:37Z</time>
      </trkpt>
      <trkpt lat="48.6798" lon="1.73631">
        <ele>168.37</ele>
        <time>2012-04-19T10:42:51Z</time>
      </trkpt>
      <trkpt lat="48.67993" lon="1.73648">
        <ele>167.89</ele>
        <time>2012-04-19T10:43:04Z</time>
      </trkpt>
      <trkpt lat="48.68008" lon="1.73669">
        <ele>169.33</ele>
        <time>2012-04-19T10:43:17Z</time>
      </trkpt>
      <trkpt lat="48.68021" lon="1.73689">
        <ele>168.37</ele>
        <time>2012-04-19T10:43:29Z</time>
      </trkpt>
      <trkpt lat="48.68028" lon="1.73698">
        <ele>166.45</ele>
        <time>2012-04-19T10:43:35Z</time>
      </trkpt>
      <trkpt lat="48.68042" lon="1.73719">
        <ele>162.6</ele>
        <time>2012-04-19T10:43:49Z</time>
      </trkpt>
      <trkpt lat="48.68056" lon="1.7374">
        <ele>159.24</ele>
        <time>2012-04-19T10:44:03Z</time>
      </trkpt>
      <trkpt lat="48.68065" lon="1.73756">
        <ele>158.75</ele>
        <time>2012-04-19T10:44:13Z</time>
      </trkpt>
      <trkpt lat="48.68076" lon="1.73769">
        <ele>159.72</ele>
        <time>2012-04-19T10:44:22Z</time>
      </trkpt>
      <trkpt lat="48.6809" lon="1.73787">
        <ele>160.68</ele>
        <time>2012-04-19T10:44:37Z</time>
      </trkpt>
      <trkpt lat="48.68101" lon="1.73803">
        <ele>159.72</ele>
        <time>2012-04-19T10:44:47Z</time>
      </trkpt>
      <trkpt lat="48.68116" lon="1.73827">
        <ele>160.2</ele>
        <time>2012-04-19T10:45:01Z</time>
      </trkpt>
      <trkpt lat="48.68135" lon="1.73853">
        <ele>162.6</ele>
        <time>2012-04-19T10:45:17Z</time>
      </trkpt>
      <trkpt lat="48.68147" lon="1.73869">
        <ele>161.16</ele>
        <time>2012-04-19T10:45:29Z</time>
      </trkpt>
      <trkpt lat="48.6815" lon="1.73874">
        <ele>159.72</ele>
        <time>2012-04-19T10:45:33Z</time>
      </trkpt>
      <trkpt lat="48.68165" lon="1.73894">
        <ele>158.75</ele>
        <time>2012-04-19T10:45:47Z</time>
      </trkpt>
      <trkpt lat="48.68174" lon="1.7391">
        <ele>157.31</ele>
        <time>2012-04-19T10:45:59Z</time>
      </trkpt>
      <trkpt lat="48.68186" lon="1.73926">
        <ele>156.35</ele>
        <time>2012-04-19T10:46:10Z</time>
      </trkpt>
      <trkpt lat="48.682" lon="1.73946">
        <ele>155.87</ele>
        <time>2012-04-19T10:46:22Z</time>
      </trkpt>
      <trkpt lat="48.68206" lon="1.7396">
        <ele>153.47</ele>
        <time>2012-04-19T10:46:35Z</time>
      </trkpt>
      <trkpt lat="48.68208" lon="1.73963">
        <ele>153.95</ele>
        <time>2012-04-19T10:46:56Z</time>
      </trkpt>
      <trkpt lat="48.68209" lon="1.73965">
        <ele>153.47</ele>
        <time>2012-04-19T10:46:57Z</time>
      </trkpt>
      <trkpt lat="48.68212" lon="1.73975">
        <ele>152.99</ele>
        <time>2012-04-19T10:47:01Z</time>
      </trkpt>
      <trkpt lat="48.68213" lon="1.7399">
        <ele>152.51</ele>
        <time>2012-04-19T10:47:05Z</time>
      </trkpt>
      <trkpt lat="48.68218" lon="1.74013">
        <ele>149.62</ele>
        <time>2012-04-19T10:47:19Z</time>
      </trkpt>
      <trkpt lat="48.6822" lon="1.74022">
        <ele>149.62</ele>
        <time>2012-04-19T10:47:24Z</time>
      </trkpt>
      <trkpt lat="48.68222" lon="1.74036">
        <ele>151.06</ele>
        <time>2012-04-19T10:47:30Z</time>
      </trkpt>
      <trkpt lat="48.68226" lon="1.74046">
        <ele>152.03</ele>
        <time>2012-04-19T10:47:36Z</time>
      </trkpt>
      <trkpt lat="48.68229" lon="1.74063">
        <ele>154.43</ele>
        <time>2012-04-19T10:47:43Z</time>
      </trkpt>
      <trkpt lat="48.68231" lon="1.7408">
        <ele>155.87</ele>
        <time>2012-04-19T10:47:50Z</time>
      </trkpt>
      <trkpt lat="48.68232" lon="1.74112">
        <ele>152.51</ele>
        <time>2012-04-19T10:48:03Z</time>
      </trkpt>
      <trkpt lat="48.68236" lon="1.74123">
        <ele>152.51</ele>
        <time>2012-04-19T10:48:09Z</time>
      </trkpt>
      <trkpt lat="48.6824" lon="1.7415">
        <ele>148.18</ele>
        <time>2012-04-19T10:48:23Z</time>
      </trkpt>
      <trkpt lat="48.68241" lon="1.74159">
        <ele>147.22</ele>
        <time>2012-04-19T10:48:27Z</time>
      </trkpt>
      <trkpt lat="48.68246" lon="1.7418">
        <ele>145.3</ele>
        <time>2012-04-19T10:48:38Z</time>
      </trkpt>
      <trkpt lat="48.68249" lon="1.74202">
        <ele>145.78</ele>
        <time>2012-04-19T10:48:51Z</time>
      </trkpt>
      <trkpt lat="48.68253" lon="1.74229">
        <ele>147.7</ele>
        <time>2012-04-19T10:49:04Z</time>
      </trkpt>
      <trkpt lat="48.68259" lon="1.7426">
        <ele>148.66</ele>
        <time>2012-04-19T10:49:19Z</time>
      </trkpt>
      <trkpt lat="48.6826" lon="1.74266">
        <ele>148.66</ele>
        <time>2012-04-19T10:49:23Z</time>
      </trkpt>
      <trkpt lat="48.68262" lon="1.74272">
        <ele>148.66</ele>
        <time>2012-04-19T10:49:27Z</time>
      </trkpt>
      <trkpt lat="48.68264" lon="1.74278">
        <ele>148.66</ele>
        <time>2012-04-19T10:49:31Z</time>
      </trkpt>
      <trkpt lat="48.68268" lon="1.74289">
        <ele>148.66</ele>
        <time>2012-04-19T10:49:38Z</time>
      </trkpt>
      <trkpt lat="48.6827" lon="1.74306">
        <ele>150.1</ele>
        <time>2012-04-19T10:49:47Z</time>
      </trkpt>
      <trkpt lat="48.6827" lon="1.74315">
        <ele>150.1</ele>
        <time>2012-04-19T10:49:51Z</time>
      </trkpt>
      <trkpt lat="48.68274" lon="1.74337">
        <ele>149.62</ele>
        <time>2012-04-19T10:50:03Z</time>
      </trkpt>
      <trkpt lat="48.6828" lon="1.74362">
        <ele>149.62</ele>
        <time>2012-04-19T10:50:16Z</time>
      </trkpt>
      <trkpt lat="48.6828" lon="1.74364">
        <ele>149.14</ele>
        <time>2012-04-19T10:50:17Z</time>
      </trkpt>
      <trkpt lat="48.6828" lon="1.74375">
        <ele>149.14</ele>
        <time>2012-04-19T10:50:21Z</time>
      </trkpt>
      <trkpt lat="48.68287" lon="1.74407">
        <ele>147.22</ele>
        <time>2012-04-19T10:50:36Z</time>
      </trkpt>
      <trkpt lat="48.68288" lon="1.7444">
        <ele>144.34</ele>
        <time>2012-04-19T10:50:50Z</time>
      </trkpt>
      <trkpt lat="48.68294" lon="1.74456">
        <ele>141.93</ele>
        <time>2012-04-19T10:51:00Z</time>
      </trkpt>
      <trkpt lat="48.68294" lon="1.74464">
        <ele>140.97</ele>
        <time>2012-04-19T10:51:15Z</time>
      </trkpt>
      <trkpt lat="48.68296" lon="1.74473">
        <ele>140.49</ele>
        <time>2012-04-19T10:51:27Z</time>
      </trkpt>
      <trkpt lat="48.68298" lon="1.745">
        <ele>138.09</ele>
        <time>2012-04-19T10:51:42Z</time>
      </trkpt>
      <trkpt lat="48.68302" lon="1.74512">
        <ele>135.68</ele>
        <time>2012-04-19T10:51:57Z</time>
      </trkpt>
      <trkpt lat="48.68304" lon="1.74515">
        <ele>135.68</ele>
        <time>2012-04-19T10:51:59Z</time>
      </trkpt>
      <trkpt lat="48.6832" lon="1.74535">
        <ele>133.76</ele>
        <time>2012-04-19T10:52:13Z</time>
      </trkpt>
      <trkpt lat="48.68335" lon="1.74551">
        <ele>133.28</ele>
        <time>2012-04-19T10:52:26Z</time>
      </trkpt>
      <trkpt lat="48.6835" lon="1.74565">
        <ele>132.8</ele>
        <time>2012-04-19T10:52:39Z</time>
      </trkpt>
      <trkpt lat="48.68362" lon="1.74573">
        <ele>131.84</ele>
        <time>2012-04-19T10:52:50Z</time>
      </trkpt>
      <trkpt lat="48.68372" lon="1.7458">
        <ele>132.32</ele>
        <time>2012-04-19T10:53:04Z</time>
      </trkpt>
      <trkpt lat="48.68375" lon="1.7458">
        <ele>132.32</ele>
        <time>2012-04-19T10:53:22Z</time>
      </trkpt>
      <trkpt lat="48.6839" lon="1.74562">
        <ele>133.76</ele>
        <time>2012-04-19T10:53:38Z</time>
      </trkpt>
      <trkpt lat="48.684" lon="1.74549">
        <ele>132.32</ele>
        <time>2012-04-19T10:53:50Z</time>
      </trkpt>
      <trkpt lat="48.68403" lon="1.74545">
        <ele>132.32</ele>
        <time>2012-04-19T10:54:08Z</time>
      </trkpt>
      <trkpt lat="48.6842" lon="1.7453">
        <ele>133.28</ele>
        <time>2012-04-19T10:54:21Z</time>
      </trkpt>
      <trkpt lat="48.68436" lon="1.74519">
        <ele>131.36</ele>
        <time>2012-04-19T10:54:34Z</time>
      </trkpt>
      <trkpt lat="48.68451" lon="1.74508">
        <ele>131.84</ele>
        <time>2012-04-19T10:54:47Z</time>
      </trkpt>
      <trkpt lat="48.68456" lon="1.74505">
        <ele>132.8</ele>
        <time>2012-04-19T10:54:51Z</time>
      </trkpt>
      <trkpt lat="48.68471" lon="1.74494">
        <ele>135.68</ele>
        <time>2012-04-19T10:55:04Z</time>
      </trkpt>
      <trkpt lat="48.68489" lon="1.7448">
        <ele>137.61</ele>
        <time>2012-04-19T10:55:17Z</time>
      </trkpt>
      <trkpt lat="48.6849" lon="1.74479">
        <ele>137.61</ele>
        <time>2012-04-19T10:55:18Z</time>
      </trkpt>
      <trkpt lat="48.68496" lon="1.74477">
        <ele>136.16</ele>
        <time>2012-04-19T10:55:23Z</time>
      </trkpt>
      <trkpt lat="48.68516" lon="1.74466">
        <ele>137.61</ele>
        <time>2012-04-19T10:55:38Z</time>
      </trkpt>
      <trkpt lat="48.68532" lon="1.74458">
        <ele>139.05</ele>
        <time>2012-04-19T10:55:51Z</time>
      </trkpt>
      <trkpt lat="48.68553" lon="1.74442">
        <ele>141.45</ele>
        <time>2012-04-19T10:56:07Z</time>
      </trkpt>
      <trkpt lat="48.68567" lon="1.74421">
        <ele>142.89</ele>
        <time>2012-04-19T10:56:20Z</time>
      </trkpt>
      <trkpt lat="48.68572" lon="1.74404">
        <ele>143.37</ele>
        <time>2012-04-19T10:56:31Z</time>
      </trkpt>
      <trkpt lat="48.68572" lon="1.74397">
        <ele>143.37</ele>
        <time>2012-04-19T10:56:35Z</time>
      </trkpt>
      <trkpt lat="48.68576" lon="1.74375">
        <ele>144.82</ele>
        <time>2012-04-19T10:56:47Z</time>
      </trkpt>
      <trkpt lat="48.68578" lon="1.74347">
        <ele>146.74</ele>
        <time>2012-04-19T10:57:00Z</time>
      </trkpt>
      <trkpt lat="48.68579" lon="1.74322">
        <ele>144.82</ele>
        <time>2012-04-19T10:57:13Z</time>
      </trkpt>
      <trkpt lat="48.6858" lon="1.74316">
        <ele>145.3</ele>
        <time>2012-04-19T10:57:22Z</time>
      </trkpt>
      <trkpt lat="48.68589" lon="1.74302">
        <ele>146.74</ele>
        <time>2012-04-19T10:57:36Z</time>
      </trkpt>
      <trkpt lat="48.68599" lon="1.74289">
        <ele>148.66</ele>
        <time>2012-04-19T10:57:43Z</time>
      </trkpt>
      <trkpt lat="48.6862" lon="1.74272">
        <ele>150.58</ele>
        <time>2012-04-19T10:57:58Z</time>
      </trkpt>
      <trkpt lat="48.68625" lon="1.74268">
        <ele>151.06</ele>
        <time>2012-04-19T10:58:02Z</time>
      </trkpt>
      <trkpt lat="48.68649" lon="1.74255">
        <ele>150.58</ele>
        <time>2012-04-19T10:58:20Z</time>
      </trkpt>
      <trkpt lat="48.68668" lon="1.74247">
        <ele>152.51</ele>
        <time>2012-04-19T10:58:33Z</time>
      </trkpt>
      <trkpt lat="48.68684" lon="1.74243">
        <ele>152.03</ele>
        <time>2012-04-19T10:58:47Z</time>
      </trkpt>
      <trkpt lat="48.687" lon="1.74227">
        <ele>148.66</ele>
        <time>2012-04-19T10:59:02Z</time>
      </trkpt>
      <trkpt lat="48.68705" lon="1.74207">
        <ele>143.37</ele>
        <time>2012-04-19T10:59:16Z</time>
      </trkpt>
      <trkpt lat="48.68705" lon="1.74206">
        <ele>142.89</ele>
        <time>2012-04-19T10:59:31Z</time>
      </trkpt>
      <trkpt lat="48.68706" lon="1.74206">
        <ele>142.89</ele>
        <time>2012-04-19T11:00:04Z</time>
      </trkpt>
      <trkpt lat="48.68706" lon="1.74206">
        <ele>142.89</ele>
        <time>2012-04-19T11:00:24Z</time>
      </trkpt>
      <trkpt lat="48.68703" lon="1.74193">
        <ele>142.41</ele>
        <time>2012-04-19T11:00:41Z</time>
      </trkpt>
      <trkpt lat="48.68701" lon="1.74184">
        <ele>141.93</ele>
        <time>2012-04-19T11:00:58Z</time>
      </trkpt>
      <trkpt lat="48.68696" lon="1.74155">
        <ele>141.45</ele>
        <time>2012-04-19T11:01:14Z</time>
      </trkpt>
      <trkpt lat="48.68692" lon="1.74131">
        <ele>140.01</ele>
        <time>2012-04-19T11:01:29Z</time>
      </trkpt>
      <trkpt lat="48.6869" lon="1.74115">
        <ele>140.49</ele>
        <time>2012-04-19T11:01:41Z</time>
      </trkpt>
      <trkpt lat="48.68689" lon="1.74105">
        <ele>140.97</ele>
        <time>2012-04-19T11:01:56Z</time>
      </trkpt>
      <trkpt lat="48.68687" lon="1.7409">
        <ele>140.97</ele>
        <time>2012-04-19T11:02:07Z</time>
      </trkpt>
      <trkpt lat="48.68692" lon="1.74109">
        <ele>144.34</ele>
        <time>2012-04-19T11:02:19Z</time>
      </trkpt>
      <trkpt lat="48.68696" lon="1.74116">
        <ele>144.82</ele>
        <time>2012-04-19T11:02:22Z</time>
      </trkpt>
      <trkpt lat="48.68697" lon="1.7413">
        <ele>143.85</ele>
        <time>2012-04-19T11:02:32Z</time>
      </trkpt>
      <trkpt lat="48.687" lon="1.74137">
        <ele>141.93</ele>
        <time>2012-04-19T11:02:38Z</time>
      </trkpt>
      <trkpt lat="48.68699" lon="1.74145">
        <ele>141.93</ele>
        <time>2012-04-19T11:02:42Z</time>
      </trkpt>
      <trkpt lat="48.68699" lon="1.74152">
        <ele>142.41</ele>
        <time>2012-04-19T11:02:46Z</time>
      </trkpt>
      <trkpt lat="48.68704" lon="1.74179">
        <ele>143.37</ele>
        <time>2012-04-19T11:03:00Z</time>
      </trkpt>
      <trkpt lat="48.6871" lon="1.7418">
        <ele>141.93</ele>
        <time>2012-04-19T11:03:14Z</time>
      </trkpt>
      <trkpt lat="48.6871" lon="1.7418">
        <ele>141.93</ele>
        <time>2012-04-19T11:03:39Z</time>
      </trkpt>
      <trkpt lat="48.68715" lon="1.7417">
        <ele>141.45</ele>
        <time>2012-04-19T11:03:51Z</time>
      </trkpt>
      <trkpt lat="48.68727" lon="1.74153">
        <ele>141.45</ele>
        <time>2012-04-19T11:04:02Z</time>
      </trkpt>
      <trkpt lat="48.68742" lon="1.74129">
        <ele>139.53</ele>
        <time>2012-04-19T11:04:18Z</time>
      </trkpt>
      <trkpt lat="48.68754" lon="1.74109">
        <ele>138.57</ele>
        <time>2012-04-19T11:04:31Z</time>
      </trkpt>
      <trkpt lat="48.68757" lon="1.74103">
        <ele>138.57</ele>
        <time>2012-04-19T11:04:48Z</time>
      </trkpt>
      <trkpt lat="48.68768" lon="1.74086">
        <ele>140.49</ele>
        <time>2012-04-19T11:05:02Z</time>
      </trkpt>
      <trkpt lat="48.68783" lon="1.74064">
        <ele>141.93</ele>
        <time>2012-04-19T11:05:18Z</time>
      </trkpt>
      <trkpt lat="48.68792" lon="1.74048">
        <ele>141.45</ele>
        <time>2012-04-19T11:05:32Z</time>
      </trkpt>
      <trkpt lat="48.68806" lon="1.74025">
        <ele>143.37</ele>
        <time>2012-04-19T11:05:49Z</time>
      </trkpt>
      <trkpt lat="48.68809" lon="1.7402">
        <ele>143.85</ele>
        <time>2012-04-19T11:06:05Z</time>
      </trkpt>
      <trkpt lat="48.68809" lon="1.7402">
        <ele>143.85</ele>
        <time>2012-04-19T11:06:35Z</time>
      </trkpt>
      <trkpt lat="48.68809" lon="1.7402">
        <ele>143.85</ele>
        <time>2012-04-19T11:07:04Z</time>
      </trkpt>
      <trkpt lat="48.6881" lon="1.74019">
        <ele>143.85</ele>
        <time>2012-04-19T11:07:31Z</time>
      </trkpt>
      <trkpt lat="48.68814" lon="1.74014">
        <ele>142.89</ele>
        <time>2012-04-19T11:07:57Z</time>
      </trkpt>
      <trkpt lat="48.68823" lon="1.74001">
        <ele>143.37</ele>
        <time>2012-04-19T11:08:11Z</time>
      </trkpt>
      <trkpt lat="48.68837" lon="1.73977">
        <ele>146.26</ele>
        <time>2012-04-19T11:08:26Z</time>
      </trkpt>
      <trkpt lat="48.68845" lon="1.73959">
        <ele>148.18</ele>
        <time>2012-04-19T11:08:39Z</time>
      </trkpt>
      <trkpt lat="48.68858" lon="1.73939">
        <ele>144.34</ele>
        <time>2012-04-19T11:08:53Z</time>
      </trkpt>
      <trkpt lat="48.68867" lon="1.73924">
        <ele>142.89</ele>
        <time>2012-04-19T11:09:06Z</time>
      </trkpt>
      <trkpt lat="48.68886" lon="1.73902">
        <ele>147.22</ele>
        <time>2012-04-19T11:09:20Z</time>
      </trkpt>
      <trkpt lat="48.68891" lon="1.73889">
        <ele>148.66</ele>
        <time>2012-04-19T11:09:28Z</time>
      </trkpt>
      <trkpt lat="48.68907" lon="1.73862">
        <ele>153.47</ele>
        <time>2012-04-19T11:09:43Z</time>
      </trkpt>
      <trkpt lat="48.68917" lon="1.73847">
        <ele>154.91</ele>
        <time>2012-04-19T11:09:55Z</time>
      </trkpt>
      <trkpt lat="48.68933" lon="1.73818">
        <ele>156.35</ele>
        <time>2012-04-19T11:10:10Z</time>
      </trkpt>
      <trkpt lat="48.68933" lon="1.73816">
        <ele>156.35</ele>
        <time>2012-04-19T11:10:11Z</time>
      </trkpt>
      <trkpt lat="48.68946" lon="1.73798">
        <ele>155.39</ele>
        <time>2012-04-19T11:10:25Z</time>
      </trkpt>
      <trkpt lat="48.68959" lon="1.73779">
        <ele>154.91</ele>
        <time>2012-04-19T11:10:39Z</time>
      </trkpt>
      <trkpt lat="48.68974" lon="1.73756">
        <ele>154.43</ele>
        <time>2012-04-19T11:10:54Z</time>
      </trkpt>
      <trkpt lat="48.68992" lon="1.73731">
        <ele>154.91</ele>
        <time>2012-04-19T11:11:10Z</time>
      </trkpt>
      <trkpt lat="48.69008" lon="1.73703">
        <ele>155.87</ele>
        <time>2012-04-19T11:11:27Z</time>
      </trkpt>
      <trkpt lat="48.69023" lon="1.73679">
        <ele>160.2</ele>
        <time>2012-04-19T11:11:43Z</time>
      </trkpt>
      <trkpt lat="48.69039" lon="1.73653">
        <ele>162.6</ele>
        <time>2012-04-19T11:11:58Z</time>
      </trkpt>
      <trkpt lat="48.69051" lon="1.73634">
        <ele>165.48</ele>
        <time>2012-04-19T11:12:12Z</time>
      </trkpt>
      <trkpt lat="48.69057" lon="1.73624">
        <ele>167.89</ele>
        <time>2012-04-19T11:12:20Z</time>
      </trkpt>
      <trkpt lat="48.69064" lon="1.73616">
        <ele>169.81</ele>
        <time>2012-04-19T11:12:34Z</time>
      </trkpt>
      <trkpt lat="48.69067" lon="1.73608">
        <ele>168.85</ele>
        <time>2012-04-19T11:12:54Z</time>
      </trkpt>
      <trkpt lat="48.69078" lon="1.73587">
        <ele>168.37</ele>
        <time>2012-04-19T11:13:07Z</time>
      </trkpt>
      <trkpt lat="48.69079" lon="1.73586">
        <ele>168.37</ele>
        <time>2012-04-19T11:13:08Z</time>
      </trkpt>
      <trkpt lat="48.69095" lon="1.73555">
        <ele>168.85</ele>
        <time>2012-04-19T11:13:27Z</time>
      </trkpt>
      <trkpt lat="48.691" lon="1.73544">
        <ele>169.33</ele>
        <time>2012-04-19T11:13:34Z</time>
      </trkpt>
      <trkpt lat="48.69114" lon="1.73519">
        <ele>168.85</ele>
        <time>2012-04-19T11:13:51Z</time>
      </trkpt>
      <trkpt lat="48.6913" lon="1.7349">
        <ele>166.45</ele>
        <time>2012-04-19T11:14:08Z</time>
      </trkpt>
      <trkpt lat="48.69144" lon="1.73467">
        <ele>165.48</ele>
        <time>2012-04-19T11:14:23Z</time>
      </trkpt>
      <trkpt lat="48.69154" lon="1.73449">
        <ele>165.96</ele>
        <time>2012-04-19T11:14:33Z</time>
      </trkpt>
      <trkpt lat="48.69168" lon="1.73422">
        <ele>164.04</ele>
        <time>2012-04-19T11:14:50Z</time>
      </trkpt>
      <trkpt lat="48.69182" lon="1.73399">
        <ele>163.56</ele>
        <time>2012-04-19T11:15:05Z</time>
      </trkpt>
      <trkpt lat="48.69192" lon="1.73374">
        <ele>167.89</ele>
        <time>2012-04-19T11:15:20Z</time>
      </trkpt>
      <trkpt lat="48.69193" lon="1.7337">
        <ele>168.37</ele>
        <time>2012-04-19T11:15:22Z</time>
      </trkpt>
      <trkpt lat="48.69201" lon="1.73358">
        <ele>167.89</ele>
        <time>2012-04-19T11:15:29Z</time>
      </trkpt>
      <trkpt lat="48.69211" lon="1.73333">
        <ele>168.37</ele>
        <time>2012-04-19T11:15:45Z</time>
      </trkpt>
      <trkpt lat="48.69216" lon="1.73322">
        <ele>167.41</ele>
        <time>2012-04-19T11:15:57Z</time>
      </trkpt>
      <trkpt lat="48.69218" lon="1.73318">
        <ele>167.41</ele>
        <time>2012-04-19T11:16:14Z</time>
      </trkpt>
      <trkpt lat="48.69219" lon="1.73316">
        <ele>167.89</ele>
        <time>2012-04-19T11:16:26Z</time>
      </trkpt>
      <trkpt lat="48.69219" lon="1.73316">
        <ele>167.89</ele>
        <time>2012-04-19T11:16:32Z</time>
      </trkpt>
      <trkpt lat="48.69233" lon="1.73291">
        <ele>170.77</ele>
        <time>2012-04-19T11:16:50Z</time>
      </trkpt>
      <trkpt lat="48.69241" lon="1.73273">
        <ele>170.77</ele>
        <time>2012-04-19T11:17:06Z</time>
      </trkpt>
      <trkpt lat="48.69253" lon="1.73253">
        <ele>170.29</ele>
        <time>2012-04-19T11:17:23Z</time>
      </trkpt>
      <trkpt lat="48.69265" lon="1.73232">
        <ele>169.33</ele>
        <time>2012-04-19T11:17:38Z</time>
      </trkpt>
      <trkpt lat="48.69279" lon="1.73202">
        <ele>169.81</ele>
        <time>2012-04-19T11:17:52Z</time>
      </trkpt>
      <trkpt lat="48.69295" lon="1.73171">
        <ele>170.77</ele>
        <time>2012-04-19T11:18:09Z</time>
      </trkpt>
      <trkpt lat="48.69305" lon="1.73152">
        <ele>170.29</ele>
        <time>2012-04-19T11:18:21Z</time>
      </trkpt>
      <trkpt lat="48.69317" lon="1.73124">
        <ele>171.73</ele>
        <time>2012-04-19T11:18:37Z</time>
      </trkpt>
      <trkpt lat="48.6933" lon="1.73098">
        <ele>171.25</ele>
        <time>2012-04-19T11:18:53Z</time>
      </trkpt>
      <trkpt lat="48.69344" lon="1.73072">
        <ele>168.85</ele>
        <time>2012-04-19T11:19:08Z</time>
      </trkpt>
      <trkpt lat="48.6936" lon="1.73045">
        <ele>168.37</ele>
        <time>2012-04-19T11:19:25Z</time>
      </trkpt>
      <trkpt lat="48.69373" lon="1.73017">
        <ele>168.37</ele>
        <time>2012-04-19T11:19:40Z</time>
      </trkpt>
      <trkpt lat="48.69386" lon="1.7299">
        <ele>167.89</ele>
        <time>2012-04-19T11:19:57Z</time>
      </trkpt>
      <trkpt lat="48.69398" lon="1.72959">
        <ele>166.93</ele>
        <time>2012-04-19T11:20:11Z</time>
      </trkpt>
      <trkpt lat="48.69414" lon="1.72931">
        <ele>167.41</ele>
        <time>2012-04-19T11:20:29Z</time>
      </trkpt>
      <trkpt lat="48.69431" lon="1.72915">
        <ele>166.93</ele>
        <time>2012-04-19T11:20:47Z</time>
      </trkpt>
      <trkpt lat="48.69432" lon="1.72915">
        <ele>166.45</ele>
        <time>2012-04-19T11:20:52Z</time>
      </trkpt>
      <trkpt lat="48.69419" lon="1.72927">
        <ele>164.04</ele>
        <time>2012-04-19T11:21:09Z</time>
      </trkpt>
      <trkpt lat="48.69418" lon="1.7293">
        <ele>163.56</ele>
        <time>2012-04-19T11:21:25Z</time>
      </trkpt>
      <trkpt lat="48.69419" lon="1.7293">
        <ele>163.08</ele>
        <time>2012-04-19T11:21:29Z</time>
      </trkpt>
      <trkpt lat="48.69423" lon="1.72925">
        <ele>163.08</ele>
        <time>2012-04-19T11:21:42Z</time>
      </trkpt>
      <trkpt lat="48.6943" lon="1.72909">
        <ele>164.04</ele>
        <time>2012-04-19T11:21:55Z</time>
      </trkpt>
      <trkpt lat="48.69441" lon="1.72881">
        <ele>163.56</ele>
        <time>2012-04-19T11:22:10Z</time>
      </trkpt>
      <trkpt lat="48.69455" lon="1.72853">
        <ele>159.72</ele>
        <time>2012-04-19T11:22:27Z</time>
      </trkpt>
      <trkpt lat="48.69466" lon="1.72833">
        <ele>157.79</ele>
        <time>2012-04-19T11:22:40Z</time>
      </trkpt>
      <trkpt lat="48.69468" lon="1.7283">
        <ele>157.79</ele>
        <time>2012-04-19T11:22:42Z</time>
      </trkpt>
      <trkpt lat="48.69483" lon="1.72797">
        <ele>159.24</ele>
        <time>2012-04-19T11:22:59Z</time>
      </trkpt>
      <trkpt lat="48.69496" lon="1.72773">
        <ele>159.72</ele>
        <time>2012-04-19T11:23:16Z</time>
      </trkpt>
      <trkpt lat="48.69512" lon="1.72747">
        <ele>157.31</ele>
        <time>2012-04-19T11:23:30Z</time>
      </trkpt>
      <trkpt lat="48.69518" lon="1.72735">
        <ele>157.31</ele>
        <time>2012-04-19T11:23:40Z</time>
      </trkpt>
      <trkpt lat="48.6953" lon="1.72728">
        <ele>158.27</ele>
        <time>2012-04-19T11:23:49Z</time>
      </trkpt>
      <trkpt lat="48.6954" lon="1.72725">
        <ele>159.24</ele>
        <time>2012-04-19T11:23:58Z</time>
      </trkpt>
      <trkpt lat="48.6955" lon="1.72723">
        <ele>159.24</ele>
        <time>2012-04-19T11:24:07Z</time>
      </trkpt>
      <trkpt lat="48.69558" lon="1.72727">
        <ele>157.79</ele>
        <time>2012-04-19T11:24:21Z</time>
      </trkpt>
      <trkpt lat="48.69557" lon="1.72727">
        <ele>157.31</ele>
        <time>2012-04-19T11:24:36Z</time>
      </trkpt>
      <trkpt lat="48.69557" lon="1.72727">
        <ele>157.31</ele>
        <time>2012-04-19T11:25:01Z</time>
      </trkpt>
      <trkpt lat="48.69557" lon="1.72726">
        <ele>156.83</ele>
        <time>2012-04-19T11:25:19Z</time>
      </trkpt>
      <trkpt lat="48.69557" lon="1.72725">
        <ele>156.35</ele>
        <time>2012-04-19T11:25:32Z</time>
      </trkpt>
      <trkpt lat="48.69559" lon="1.72727">
        <ele>155.39</ele>
        <time>2012-04-19T11:25:43Z</time>
      </trkpt>
      <trkpt lat="48.69559" lon="1.72727">
        <ele>155.39</ele>
        <time>2012-04-19T11:26:03Z</time>
      </trkpt>
      <trkpt lat="48.69559" lon="1.72726">
        <ele>154.91</ele>
        <time>2012-04-19T11:26:15Z</time>
      </trkpt>
      <trkpt lat="48.69559" lon="1.72726">
        <ele>154.91</ele>
        <time>2012-04-19T11:26:43Z</time>
      </trkpt>
      <trkpt lat="48.69559" lon="1.72726">
        <ele>155.87</ele>
        <time>2012-04-19T11:27:12Z</time>
      </trkpt>
      <trkpt lat="48.69559" lon="1.72726">
        <ele>155.87</ele>
        <time>2012-04-19T11:27:38Z</time>
      </trkpt>
      <trkpt lat="48.69559" lon="1.72726">
        <ele>155.39</ele>
        <time>2012-04-19T11:28:09Z</time>
      </trkpt>
      <trkpt lat="48.6956" lon="1.72725">
        <ele>155.87</ele>
        <time>2012-04-19T11:28:42Z</time>
      </trkpt>
      <trkpt lat="48.6956" lon="1.72725">
        <ele>155.87</ele>
        <time>2012-04-19T11:29:16Z</time>
      </trkpt>
      <trkpt lat="48.6956" lon="1.72725">
        <ele>155.87</ele>
        <time>2012-04-19T11:29:47Z</time>
      </trkpt>
      <trkpt lat="48.6956" lon="1.72725">
        <ele>155.87</ele>
        <time>2012-04-19T11:30:15Z</time>
      </trkpt>
      <trkpt lat="48.6956" lon="1.72725">
        <ele>155.87</ele>
        <time>2012-04-19T11:30:49Z</time>
      </trkpt>
      <trkpt lat="48.6956" lon="1.72722">
        <ele>156.35</ele>
        <time>2012-04-19T11:31:17Z</time>
      </trkpt>
      <trkpt lat="48.6956" lon="1.72722">
        <ele>156.35</ele>
        <time>2012-04-19T11:31:51Z</time>
      </trkpt>
    </trkseg>
  </trk>
</gpx>